<?xml version="1.0" encoding="UTF-8" standalone="no" ?>
<gpx xmlns="http://www.topografix.com/GPX/1/1" creator="CompeGPS" version="1.1" xmlns:xsi="http://www.w3.org/2001/XMLSchema-instance" xsi:schemaLocation="http://www.topografix.com/GPX/1/1 http://www.topografix.com/GPX/1/1/gpx.xsd http://www.garmin.com/xmlschemas/GpxExtensions/v3 http://www.garmin.com/xmlschemas/GpxExtensionsv3.xsd http://www.garmin.com/xmlschemas/TrackPointExtension/v1 http://www.garmin.com/xmlschemas/TrackPointExtensionv1.xsd" xmlns:gpxtpx="http://www.garmin.com/xmlschemas/TrackPointExtension/v1">
  <metadata>
    <link href="http://www.compegps.com">
      <text>CompeGPS TEAM, SL</text>
    </link>
    <time>2018-11-07T20:25:15Z</time>
    <bounds maxlat="42.827565" maxlon="0.272854" minlat="42.811759" minlon="0.231258"/>
  </metadata>
<wpt lat="42.825865" lon="0.258514">
<ele>1594</ele>
<name>Parking Espiaube</name>
</wpt>
<wpt lat="42.820677" lon="0.272776">
<ele>1850</ele>
<name>Croisee de chemins</name>
</wpt>
<wpt lat="42.813725" lon="0.257845">
<ele>2377</ele>
<name>Soum de Matte</name>
</wpt>
<wpt lat="42.812019" lon="0.247501">
<ele>2566</ele>
<name>Pic Arrouye</name>
</wpt>
<wpt lat="42.817328" lon="0.239983">
<ele>2582</ele>
<name>Pene Male</name>
</wpt>
<wpt lat="42.821018" lon="0.232242">
<ele>2527</ele>
<name>Pic Cabanou</name>
</wpt>
<wpt lat="42.824026" lon="0.232312">
<ele>2300</ele>
<name>Col Terre Nere</name>
</wpt>
<trk>
    <name>heche_barrade</name>
    <userMyTwoNav></userMyTwoNav>
    <serialNumber></serialNumber>
    <trkseg>
      <trkpt lat="42.825865" lon="0.258514">
        <ele>1607.5</ele>
        <time>2018-10-24T11:46:58Z</time>
        <name>Parking Espiaube</name>
      </trkpt>
      <trkpt lat="42.825870" lon="0.258380">
        <ele>1596.4</ele>
        <time>2018-10-24T11:47:12Z</time>
      </trkpt>
      <trkpt lat="42.825806" lon="0.258217">
        <ele>1594.8</ele>
        <time>2018-10-24T11:47:23Z</time>
      </trkpt>
      <trkpt lat="42.825813" lon="0.258119">
        <ele>1594.9</ele>
        <time>2018-10-24T11:47:40Z</time>
      </trkpt>
      <trkpt lat="42.825792" lon="0.257994">
        <ele>1595.6</ele>
        <time>2018-10-24T11:47:50Z</time>
      </trkpt>
      <trkpt lat="42.825696" lon="0.257968">
        <ele>1595.8</ele>
        <time>2018-10-24T11:47:58Z</time>
      </trkpt>
      <trkpt lat="42.825614" lon="0.257951">
        <ele>1595.8</ele>
        <time>2018-10-24T11:48:06Z</time>
      </trkpt>
      <trkpt lat="42.825509" lon="0.257905">
        <ele>1595.6</ele>
        <time>2018-10-24T11:48:14Z</time>
      </trkpt>
      <trkpt lat="42.825403" lon="0.257900">
        <ele>1595.4</ele>
        <time>2018-10-24T11:48:22Z</time>
      </trkpt>
      <trkpt lat="42.825317" lon="0.257909">
        <ele>1595.5</ele>
        <time>2018-10-24T11:48:29Z</time>
      </trkpt>
      <trkpt lat="42.825245" lon="0.257953">
        <ele>1595.3</ele>
        <time>2018-10-24T11:48:36Z</time>
      </trkpt>
      <trkpt lat="42.825186" lon="0.258034">
        <ele>1595.8</ele>
        <time>2018-10-24T11:48:44Z</time>
      </trkpt>
      <trkpt lat="42.825110" lon="0.258148">
        <ele>1597.3</ele>
        <time>2018-10-24T11:48:53Z</time>
      </trkpt>
      <trkpt lat="42.825056" lon="0.258268">
        <ele>1598.9</ele>
        <time>2018-10-24T11:49:02Z</time>
      </trkpt>
      <trkpt lat="42.825014" lon="0.258389">
        <ele>1600.2</ele>
        <time>2018-10-24T11:49:10Z</time>
      </trkpt>
      <trkpt lat="42.824993" lon="0.258526">
        <ele>1601.6</ele>
        <time>2018-10-24T11:49:19Z</time>
      </trkpt>
      <trkpt lat="42.824952" lon="0.258644">
        <ele>1603.2</ele>
        <time>2018-10-24T11:49:27Z</time>
      </trkpt>
      <trkpt lat="42.824918" lon="0.258767">
        <ele>1604.7</ele>
        <time>2018-10-24T11:49:35Z</time>
      </trkpt>
      <trkpt lat="42.824871" lon="0.258886">
        <ele>1605.9</ele>
        <time>2018-10-24T11:49:43Z</time>
      </trkpt>
      <trkpt lat="42.824839" lon="0.258996">
        <ele>1606.9</ele>
        <time>2018-10-24T11:49:50Z</time>
      </trkpt>
      <trkpt lat="42.824767" lon="0.259090">
        <ele>1608.0</ele>
        <time>2018-10-24T11:49:58Z</time>
      </trkpt>
      <trkpt lat="42.824693" lon="0.259179">
        <ele>1608.8</ele>
        <time>2018-10-24T11:50:06Z</time>
      </trkpt>
      <trkpt lat="42.824614" lon="0.259274">
        <ele>1610.3</ele>
        <time>2018-10-24T11:50:15Z</time>
      </trkpt>
      <trkpt lat="42.824542" lon="0.259370">
        <ele>1611.5</ele>
        <time>2018-10-24T11:50:23Z</time>
      </trkpt>
      <trkpt lat="42.824495" lon="0.259513">
        <ele>1613.3</ele>
        <time>2018-10-24T11:50:32Z</time>
      </trkpt>
      <trkpt lat="42.824445" lon="0.259648">
        <ele>1615.2</ele>
        <time>2018-10-24T11:50:42Z</time>
      </trkpt>
      <trkpt lat="42.824422" lon="0.259777">
        <ele>1616.7</ele>
        <time>2018-10-24T11:50:51Z</time>
      </trkpt>
      <trkpt lat="42.824435" lon="0.259938">
        <ele>1618.6</ele>
        <time>2018-10-24T11:51:01Z</time>
      </trkpt>
      <trkpt lat="42.824394" lon="0.260091">
        <ele>1620.4</ele>
        <time>2018-10-24T11:51:13Z</time>
      </trkpt>
      <trkpt lat="42.824397" lon="0.260251">
        <ele>1621.6</ele>
        <time>2018-10-24T11:51:22Z</time>
      </trkpt>
      <trkpt lat="42.824376" lon="0.260400">
        <ele>1623.0</ele>
        <time>2018-10-24T11:51:31Z</time>
      </trkpt>
      <trkpt lat="42.824346" lon="0.260552">
        <ele>1624.2</ele>
        <time>2018-10-24T11:51:39Z</time>
      </trkpt>
      <trkpt lat="42.824303" lon="0.260681">
        <ele>1625.3</ele>
        <time>2018-10-24T11:51:47Z</time>
      </trkpt>
      <trkpt lat="42.824258" lon="0.260803">
        <ele>1626.1</ele>
        <time>2018-10-24T11:51:54Z</time>
      </trkpt>
      <trkpt lat="42.824209" lon="0.260934">
        <ele>1627.2</ele>
        <time>2018-10-24T11:52:02Z</time>
      </trkpt>
      <trkpt lat="42.824173" lon="0.261073">
        <ele>1627.9</ele>
        <time>2018-10-24T11:52:10Z</time>
      </trkpt>
      <trkpt lat="42.824133" lon="0.261211">
        <ele>1628.4</ele>
        <time>2018-10-24T11:52:17Z</time>
      </trkpt>
      <trkpt lat="42.824087" lon="0.261335">
        <ele>1628.9</ele>
        <time>2018-10-24T11:52:24Z</time>
      </trkpt>
      <trkpt lat="42.824078" lon="0.261462">
        <ele>1629.8</ele>
        <time>2018-10-24T11:52:32Z</time>
      </trkpt>
      <trkpt lat="42.824056" lon="0.261592">
        <ele>1630.4</ele>
        <time>2018-10-24T11:52:40Z</time>
      </trkpt>
      <trkpt lat="42.824007" lon="0.261715">
        <ele>1631.1</ele>
        <time>2018-10-24T11:52:48Z</time>
      </trkpt>
      <trkpt lat="42.823966" lon="0.261834">
        <ele>1631.9</ele>
        <time>2018-10-24T11:52:55Z</time>
      </trkpt>
      <trkpt lat="42.823924" lon="0.261941">
        <ele>1632.9</ele>
        <time>2018-10-24T11:53:03Z</time>
      </trkpt>
      <trkpt lat="42.823862" lon="0.262326">
        <ele>1637.8</ele>
        <time>2018-10-24T11:55:50Z</time>
      </trkpt>
      <trkpt lat="42.823840" lon="0.262447">
        <ele>1637.7</ele>
        <time>2018-10-24T11:55:56Z</time>
      </trkpt>
      <trkpt lat="42.823811" lon="0.262575">
        <ele>1638.4</ele>
        <time>2018-10-24T11:56:03Z</time>
      </trkpt>
      <trkpt lat="42.823771" lon="0.262698">
        <ele>1639.4</ele>
        <time>2018-10-24T11:56:11Z</time>
      </trkpt>
      <trkpt lat="42.823742" lon="0.262825">
        <ele>1641.8</ele>
        <time>2018-10-24T11:56:21Z</time>
      </trkpt>
      <trkpt lat="42.823710" lon="0.262942">
        <ele>1643.3</ele>
        <time>2018-10-24T11:56:29Z</time>
      </trkpt>
      <trkpt lat="42.823673" lon="0.263053">
        <ele>1645.4</ele>
        <time>2018-10-24T11:56:38Z</time>
      </trkpt>
      <trkpt lat="42.823635" lon="0.263165">
        <ele>1647.9</ele>
        <time>2018-10-24T11:56:47Z</time>
      </trkpt>
      <trkpt lat="42.823579" lon="0.263284">
        <ele>1650.1</ele>
        <time>2018-10-24T11:56:57Z</time>
      </trkpt>
      <trkpt lat="42.823537" lon="0.263390">
        <ele>1652.2</ele>
        <time>2018-10-24T11:57:06Z</time>
      </trkpt>
      <trkpt lat="42.823481" lon="0.263521">
        <ele>1654.7</ele>
        <time>2018-10-24T11:57:16Z</time>
      </trkpt>
      <trkpt lat="42.823422" lon="0.263643">
        <ele>1656.4</ele>
        <time>2018-10-24T11:57:24Z</time>
      </trkpt>
      <trkpt lat="42.823376" lon="0.263703">
        <ele>1658.8</ele>
        <time>2018-10-24T11:57:34Z</time>
      </trkpt>
      <trkpt lat="42.823352" lon="0.263807">
        <ele>1659.6</ele>
        <time>2018-10-24T11:58:12Z</time>
      </trkpt>
      <trkpt lat="42.823333" lon="0.263929">
        <ele>1660.9</ele>
        <time>2018-10-24T11:58:20Z</time>
      </trkpt>
      <trkpt lat="42.823292" lon="0.264058">
        <ele>1663.1</ele>
        <time>2018-10-24T11:58:27Z</time>
      </trkpt>
      <trkpt lat="42.823244" lon="0.264191">
        <ele>1665.2</ele>
        <time>2018-10-24T11:58:34Z</time>
      </trkpt>
      <trkpt lat="42.823198" lon="0.264301">
        <ele>1666.9</ele>
        <time>2018-10-24T11:58:40Z</time>
      </trkpt>
      <trkpt lat="42.823156" lon="0.264417">
        <ele>1668.4</ele>
        <time>2018-10-24T11:58:46Z</time>
      </trkpt>
      <trkpt lat="42.823123" lon="0.264544">
        <ele>1670.1</ele>
        <time>2018-10-24T11:58:52Z</time>
      </trkpt>
      <trkpt lat="42.823110" lon="0.264689">
        <ele>1672.2</ele>
        <time>2018-10-24T11:59:00Z</time>
      </trkpt>
      <trkpt lat="42.823072" lon="0.264805">
        <ele>1673.8</ele>
        <time>2018-10-24T11:59:07Z</time>
      </trkpt>
      <trkpt lat="42.823051" lon="0.264920">
        <ele>1676.0</ele>
        <time>2018-10-24T11:59:15Z</time>
      </trkpt>
      <trkpt lat="42.823030" lon="0.265058">
        <ele>1678.3</ele>
        <time>2018-10-24T11:59:25Z</time>
      </trkpt>
      <trkpt lat="42.822987" lon="0.265172">
        <ele>1679.8</ele>
        <time>2018-10-24T11:59:34Z</time>
      </trkpt>
      <trkpt lat="42.822936" lon="0.265276">
        <ele>1682.4</ele>
        <time>2018-10-24T11:59:44Z</time>
      </trkpt>
      <trkpt lat="42.822875" lon="0.265387">
        <ele>1683.9</ele>
        <time>2018-10-24T11:59:52Z</time>
      </trkpt>
      <trkpt lat="42.822829" lon="0.265515">
        <ele>1685.4</ele>
        <time>2018-10-24T12:00:00Z</time>
      </trkpt>
      <trkpt lat="42.822777" lon="0.265640">
        <ele>1687.7</ele>
        <time>2018-10-24T12:00:09Z</time>
      </trkpt>
      <trkpt lat="42.822750" lon="0.265741">
        <ele>1689.7</ele>
        <time>2018-10-24T12:00:18Z</time>
      </trkpt>
      <trkpt lat="42.822694" lon="0.265856">
        <ele>1691.7</ele>
        <time>2018-10-24T12:00:27Z</time>
      </trkpt>
      <trkpt lat="42.822659" lon="0.265960">
        <ele>1693.2</ele>
        <time>2018-10-24T12:00:34Z</time>
      </trkpt>
      <trkpt lat="42.822601" lon="0.266049">
        <ele>1695.8</ele>
        <time>2018-10-24T12:00:45Z</time>
      </trkpt>
      <trkpt lat="42.822536" lon="0.266149">
        <ele>1697.8</ele>
        <time>2018-10-24T12:00:54Z</time>
      </trkpt>
      <trkpt lat="42.822474" lon="0.266266">
        <ele>1701.1</ele>
        <time>2018-10-24T12:01:07Z</time>
      </trkpt>
      <trkpt lat="42.822418" lon="0.266378">
        <ele>1703.4</ele>
        <time>2018-10-24T12:01:17Z</time>
      </trkpt>
      <trkpt lat="42.822368" lon="0.266513">
        <ele>1706.9</ele>
        <time>2018-10-24T12:01:30Z</time>
      </trkpt>
      <trkpt lat="42.822335" lon="0.266651">
        <ele>1709.5</ele>
        <time>2018-10-24T12:01:41Z</time>
      </trkpt>
      <trkpt lat="42.822323" lon="0.266774">
        <ele>1712.5</ele>
        <time>2018-10-24T12:01:53Z</time>
      </trkpt>
      <trkpt lat="42.822326" lon="0.266900">
        <ele>1715.2</ele>
        <time>2018-10-24T12:02:06Z</time>
      </trkpt>
      <trkpt lat="42.822349" lon="0.267038">
        <ele>1718.1</ele>
        <time>2018-10-24T12:02:18Z</time>
      </trkpt>
      <trkpt lat="42.822385" lon="0.267197">
        <ele>1721.3</ele>
        <time>2018-10-24T12:02:32Z</time>
      </trkpt>
      <trkpt lat="42.822418" lon="0.267336">
        <ele>1724.7</ele>
        <time>2018-10-24T12:02:46Z</time>
      </trkpt>
      <trkpt lat="42.822421" lon="0.267465">
        <ele>1727.0</ele>
        <time>2018-10-24T12:02:56Z</time>
      </trkpt>
      <trkpt lat="42.822402" lon="0.267598">
        <ele>1729.5</ele>
        <time>2018-10-24T12:03:06Z</time>
      </trkpt>
      <trkpt lat="42.822382" lon="0.267734">
        <ele>1731.0</ele>
        <time>2018-10-24T12:03:14Z</time>
      </trkpt>
      <trkpt lat="42.822351" lon="0.267853">
        <ele>1732.9</ele>
        <time>2018-10-24T12:03:23Z</time>
      </trkpt>
      <trkpt lat="42.822333" lon="0.267975">
        <ele>1735.0</ele>
        <time>2018-10-24T12:03:33Z</time>
      </trkpt>
      <trkpt lat="42.822296" lon="0.268103">
        <ele>1736.9</ele>
        <time>2018-10-24T12:03:43Z</time>
      </trkpt>
      <trkpt lat="42.822252" lon="0.268206">
        <ele>1739.0</ele>
        <time>2018-10-24T12:03:52Z</time>
      </trkpt>
      <trkpt lat="42.822213" lon="0.268360">
        <ele>1741.3</ele>
        <time>2018-10-24T12:04:02Z</time>
      </trkpt>
      <trkpt lat="42.822205" lon="0.268505">
        <ele>1743.5</ele>
        <time>2018-10-24T12:04:12Z</time>
      </trkpt>
      <trkpt lat="42.822191" lon="0.268644">
        <ele>1745.8</ele>
        <time>2018-10-24T12:04:23Z</time>
      </trkpt>
      <trkpt lat="42.822207" lon="0.268767">
        <ele>1747.9</ele>
        <time>2018-10-24T12:04:32Z</time>
      </trkpt>
      <trkpt lat="42.822184" lon="0.268891">
        <ele>1749.7</ele>
        <time>2018-10-24T12:04:41Z</time>
      </trkpt>
      <trkpt lat="42.822161" lon="0.269018">
        <ele>1751.4</ele>
        <time>2018-10-24T12:04:49Z</time>
      </trkpt>
      <trkpt lat="42.822106" lon="0.269131">
        <ele>1752.9</ele>
        <time>2018-10-24T12:04:57Z</time>
      </trkpt>
      <trkpt lat="42.822044" lon="0.269228">
        <ele>1754.2</ele>
        <time>2018-10-24T12:05:05Z</time>
      </trkpt>
      <trkpt lat="42.821972" lon="0.269319">
        <ele>1755.8</ele>
        <time>2018-10-24T12:05:13Z</time>
      </trkpt>
      <trkpt lat="42.821890" lon="0.269419">
        <ele>1757.6</ele>
        <time>2018-10-24T12:05:22Z</time>
      </trkpt>
      <trkpt lat="42.821837" lon="0.269536">
        <ele>1759.1</ele>
        <time>2018-10-24T12:05:32Z</time>
      </trkpt>
      <trkpt lat="42.821788" lon="0.269683">
        <ele>1761.0</ele>
        <time>2018-10-24T12:05:42Z</time>
      </trkpt>
      <trkpt lat="42.821767" lon="0.269839">
        <ele>1762.8</ele>
        <time>2018-10-24T12:05:51Z</time>
      </trkpt>
      <trkpt lat="42.821746" lon="0.269956">
        <ele>1764.1</ele>
        <time>2018-10-24T12:05:58Z</time>
      </trkpt>
      <trkpt lat="42.821741" lon="0.270087">
        <ele>1765.7</ele>
        <time>2018-10-24T12:06:07Z</time>
      </trkpt>
      <trkpt lat="42.821747" lon="0.270229">
        <ele>1767.8</ele>
        <time>2018-10-24T12:06:17Z</time>
      </trkpt>
      <trkpt lat="42.821731" lon="0.270368">
        <ele>1769.5</ele>
        <time>2018-10-24T12:06:26Z</time>
      </trkpt>
      <trkpt lat="42.821697" lon="0.270488">
        <ele>1771.2</ele>
        <time>2018-10-24T12:06:34Z</time>
      </trkpt>
      <trkpt lat="42.821669" lon="0.270593">
        <ele>1772.3</ele>
        <time>2018-10-24T12:06:42Z</time>
      </trkpt>
      <trkpt lat="42.821628" lon="0.270698">
        <ele>1773.7</ele>
        <time>2018-10-24T12:06:51Z</time>
      </trkpt>
      <trkpt lat="42.821568" lon="0.270805">
        <ele>1775.9</ele>
        <time>2018-10-24T12:07:01Z</time>
      </trkpt>
      <trkpt lat="42.821517" lon="0.270940">
        <ele>1778.7</ele>
        <time>2018-10-24T12:07:14Z</time>
      </trkpt>
      <trkpt lat="42.821471" lon="0.271035">
        <ele>1781.8</ele>
        <time>2018-10-24T12:07:29Z</time>
      </trkpt>
      <trkpt lat="42.821420" lon="0.271143">
        <ele>1785.0</ele>
        <time>2018-10-24T12:07:43Z</time>
      </trkpt>
      <trkpt lat="42.821373" lon="0.271244">
        <ele>1788.2</ele>
        <time>2018-10-24T12:07:57Z</time>
      </trkpt>
      <trkpt lat="42.821321" lon="0.271350">
        <ele>1791.6</ele>
        <time>2018-10-24T12:08:11Z</time>
      </trkpt>
      <trkpt lat="42.821275" lon="0.271463">
        <ele>1795.1</ele>
        <time>2018-10-24T12:08:28Z</time>
      </trkpt>
      <trkpt lat="42.821228" lon="0.271578">
        <ele>1798.6</ele>
        <time>2018-10-24T12:08:43Z</time>
      </trkpt>
      <trkpt lat="42.821178" lon="0.271672">
        <ele>1802.1</ele>
        <time>2018-10-24T12:08:59Z</time>
      </trkpt>
      <trkpt lat="42.821121" lon="0.271784">
        <ele>1806.7</ele>
        <time>2018-10-24T12:09:18Z</time>
      </trkpt>
      <trkpt lat="42.821053" lon="0.271912">
        <ele>1810.7</ele>
        <time>2018-10-24T12:09:36Z</time>
      </trkpt>
      <trkpt lat="42.820990" lon="0.272016">
        <ele>1814.1</ele>
        <time>2018-10-24T12:09:52Z</time>
      </trkpt>
      <trkpt lat="42.820941" lon="0.272132">
        <ele>1817.9</ele>
        <time>2018-10-24T12:10:11Z</time>
      </trkpt>
      <trkpt lat="42.820887" lon="0.272246">
        <ele>1821.2</ele>
        <time>2018-10-24T12:10:27Z</time>
      </trkpt>
      <trkpt lat="42.820852" lon="0.272357">
        <ele>1824.1</ele>
        <time>2018-10-24T12:10:40Z</time>
      </trkpt>
      <trkpt lat="42.820817" lon="0.272438">
        <ele>1827.9</ele>
        <time>2018-10-24T12:11:04Z</time>
      </trkpt>
      <trkpt lat="42.820766" lon="0.272568">
        <ele>1829.5</ele>
        <time>2018-10-24T12:11:39Z</time>
      </trkpt>
      <trkpt lat="42.820725" lon="0.272655">
        <ele>1832.9</ele>
        <time>2018-10-24T12:11:52Z</time>
      </trkpt>
      <trkpt lat="42.820677" lon="0.272776">
        <ele>1836.3</ele>
        <time>2018-10-24T12:12:08Z</time>
        <name>Croisee de chemins</name>
      </trkpt>
      <trkpt lat="42.820592" lon="0.272854">
        <ele>1839.0</ele>
        <time>2018-10-24T12:12:22Z</time>
      </trkpt>
      <trkpt lat="42.820541" lon="0.272762">
        <ele>1840.9</ele>
        <time>2018-10-24T12:12:43Z</time>
      </trkpt>
      <trkpt lat="42.820503" lon="0.272657">
        <ele>1841.4</ele>
        <time>2018-10-24T12:12:51Z</time>
      </trkpt>
      <trkpt lat="42.820459" lon="0.272542">
        <ele>1842.2</ele>
        <time>2018-10-24T12:12:59Z</time>
      </trkpt>
      <trkpt lat="42.820407" lon="0.272438">
        <ele>1843.0</ele>
        <time>2018-10-24T12:13:07Z</time>
      </trkpt>
      <trkpt lat="42.820359" lon="0.272331">
        <ele>1843.5</ele>
        <time>2018-10-24T12:13:15Z</time>
      </trkpt>
      <trkpt lat="42.820207" lon="0.272220">
        <ele>1847.4</ele>
        <time>2018-10-24T12:14:19Z</time>
      </trkpt>
      <trkpt lat="42.820131" lon="0.272193">
        <ele>1851.2</ele>
        <time>2018-10-24T12:14:34Z</time>
      </trkpt>
      <trkpt lat="42.820043" lon="0.272129">
        <ele>1854.7</ele>
        <time>2018-10-24T12:14:49Z</time>
      </trkpt>
      <trkpt lat="42.819964" lon="0.272057">
        <ele>1858.4</ele>
        <time>2018-10-24T12:15:06Z</time>
      </trkpt>
      <trkpt lat="42.819877" lon="0.271996">
        <ele>1861.9</ele>
        <time>2018-10-24T12:15:25Z</time>
      </trkpt>
      <trkpt lat="42.819799" lon="0.271925">
        <ele>1866.1</ele>
        <time>2018-10-24T12:15:45Z</time>
      </trkpt>
      <trkpt lat="42.819714" lon="0.271868">
        <ele>1870.6</ele>
        <time>2018-10-24T12:16:08Z</time>
      </trkpt>
      <trkpt lat="42.819635" lon="0.271813">
        <ele>1874.2</ele>
        <time>2018-10-24T12:16:28Z</time>
      </trkpt>
      <trkpt lat="42.819552" lon="0.271745">
        <ele>1878.3</ele>
        <time>2018-10-24T12:16:51Z</time>
      </trkpt>
      <trkpt lat="42.819482" lon="0.271687">
        <ele>1881.6</ele>
        <time>2018-10-24T12:17:10Z</time>
      </trkpt>
      <trkpt lat="42.819406" lon="0.271612">
        <ele>1885.8</ele>
        <time>2018-10-24T12:17:33Z</time>
      </trkpt>
      <trkpt lat="42.819323" lon="0.271556">
        <ele>1889.4</ele>
        <time>2018-10-24T12:17:52Z</time>
      </trkpt>
      <trkpt lat="42.819259" lon="0.271484">
        <ele>1893.1</ele>
        <time>2018-10-24T12:18:11Z</time>
      </trkpt>
      <trkpt lat="42.819176" lon="0.271427">
        <ele>1897.0</ele>
        <time>2018-10-24T12:18:33Z</time>
      </trkpt>
      <trkpt lat="42.819102" lon="0.271381">
        <ele>1899.6</ele>
        <time>2018-10-24T12:18:49Z</time>
      </trkpt>
      <trkpt lat="42.819040" lon="0.271322">
        <ele>1902.9</ele>
        <time>2018-10-24T12:19:07Z</time>
      </trkpt>
      <trkpt lat="42.818964" lon="0.271259">
        <ele>1907.2</ele>
        <time>2018-10-24T12:19:30Z</time>
      </trkpt>
      <trkpt lat="42.818886" lon="0.271215">
        <ele>1910.3</ele>
        <time>2018-10-24T12:19:49Z</time>
      </trkpt>
      <trkpt lat="42.818811" lon="0.271158">
        <ele>1914.2</ele>
        <time>2018-10-24T12:20:09Z</time>
      </trkpt>
      <trkpt lat="42.818740" lon="0.271074">
        <ele>1917.3</ele>
        <time>2018-10-24T12:20:27Z</time>
      </trkpt>
      <trkpt lat="42.818655" lon="0.271018">
        <ele>1920.6</ele>
        <time>2018-10-24T12:20:44Z</time>
      </trkpt>
      <trkpt lat="42.818563" lon="0.270959">
        <ele>1923.4</ele>
        <time>2018-10-24T12:21:00Z</time>
      </trkpt>
      <trkpt lat="42.818492" lon="0.270887">
        <ele>1926.0</ele>
        <time>2018-10-24T12:21:18Z</time>
      </trkpt>
      <trkpt lat="42.818414" lon="0.270837">
        <ele>1929.4</ele>
        <time>2018-10-24T12:21:37Z</time>
      </trkpt>
      <trkpt lat="42.818337" lon="0.270776">
        <ele>1933.5</ele>
        <time>2018-10-24T12:21:57Z</time>
      </trkpt>
      <trkpt lat="42.818261" lon="0.270710">
        <ele>1937.8</ele>
        <time>2018-10-24T12:22:18Z</time>
      </trkpt>
      <trkpt lat="42.818204" lon="0.270650">
        <ele>1941.6</ele>
        <time>2018-10-24T12:22:39Z</time>
      </trkpt>
      <trkpt lat="42.818137" lon="0.270582">
        <ele>1945.5</ele>
        <time>2018-10-24T12:23:00Z</time>
      </trkpt>
      <trkpt lat="42.818055" lon="0.270541">
        <ele>1950.6</ele>
        <time>2018-10-24T12:23:28Z</time>
      </trkpt>
      <trkpt lat="42.817985" lon="0.270490">
        <ele>1954.2</ele>
        <time>2018-10-24T12:23:49Z</time>
      </trkpt>
      <trkpt lat="42.817890" lon="0.270490">
        <ele>1956.9</ele>
        <time>2018-10-24T12:24:05Z</time>
      </trkpt>
      <trkpt lat="42.817731" lon="0.270388">
        <ele>1962.5</ele>
        <time>2018-10-24T12:25:00Z</time>
      </trkpt>
      <trkpt lat="42.817683" lon="0.270278">
        <ele>1965.2</ele>
        <time>2018-10-24T12:25:13Z</time>
      </trkpt>
      <trkpt lat="42.817571" lon="0.270243">
        <ele>1970.7</ele>
        <time>2018-10-24T12:25:56Z</time>
      </trkpt>
      <trkpt lat="42.817495" lon="0.270177">
        <ele>1974.5</ele>
        <time>2018-10-24T12:26:14Z</time>
      </trkpt>
      <trkpt lat="42.817423" lon="0.270117">
        <ele>1978.2</ele>
        <time>2018-10-24T12:26:35Z</time>
      </trkpt>
      <trkpt lat="42.817356" lon="0.270052">
        <ele>1983.2</ele>
        <time>2018-10-24T12:27:00Z</time>
      </trkpt>
      <trkpt lat="42.817297" lon="0.269981">
        <ele>1986.5</ele>
        <time>2018-10-24T12:27:16Z</time>
      </trkpt>
      <trkpt lat="42.817219" lon="0.269951">
        <ele>1990.7</ele>
        <time>2018-10-24T12:27:35Z</time>
      </trkpt>
      <trkpt lat="42.817149" lon="0.269895">
        <ele>1995.4</ele>
        <time>2018-10-24T12:27:56Z</time>
      </trkpt>
      <trkpt lat="42.817083" lon="0.269832">
        <ele>1999.5</ele>
        <time>2018-10-24T12:28:16Z</time>
      </trkpt>
      <trkpt lat="42.817004" lon="0.269781">
        <ele>2004.0</ele>
        <time>2018-10-24T12:28:39Z</time>
      </trkpt>
      <trkpt lat="42.816926" lon="0.269717">
        <ele>2009.1</ele>
        <time>2018-10-24T12:29:07Z</time>
      </trkpt>
      <trkpt lat="42.816855" lon="0.269676">
        <ele>2014.3</ele>
        <time>2018-10-24T12:29:36Z</time>
      </trkpt>
      <trkpt lat="42.816786" lon="0.269623">
        <ele>2019.2</ele>
        <time>2018-10-24T12:30:03Z</time>
      </trkpt>
      <trkpt lat="42.816721" lon="0.269554">
        <ele>2023.5</ele>
        <time>2018-10-24T12:30:28Z</time>
      </trkpt>
      <trkpt lat="42.816647" lon="0.269500">
        <ele>2027.9</ele>
        <time>2018-10-24T12:30:54Z</time>
      </trkpt>
      <trkpt lat="42.816572" lon="0.269423">
        <ele>2032.6</ele>
        <time>2018-10-24T12:31:18Z</time>
      </trkpt>
      <trkpt lat="42.816495" lon="0.269370">
        <ele>2037.7</ele>
        <time>2018-10-24T12:31:44Z</time>
      </trkpt>
      <trkpt lat="42.816411" lon="0.269333">
        <ele>2042.8</ele>
        <time>2018-10-24T12:32:11Z</time>
      </trkpt>
      <trkpt lat="42.816326" lon="0.269275">
        <ele>2048.0</ele>
        <time>2018-10-24T12:32:40Z</time>
      </trkpt>
      <trkpt lat="42.816255" lon="0.269228">
        <ele>2052.0</ele>
        <time>2018-10-24T12:33:04Z</time>
      </trkpt>
      <trkpt lat="42.816177" lon="0.269174">
        <ele>2057.1</ele>
        <time>2018-10-24T12:33:32Z</time>
      </trkpt>
      <trkpt lat="42.816115" lon="0.269108">
        <ele>2061.4</ele>
        <time>2018-10-24T12:33:53Z</time>
      </trkpt>
      <trkpt lat="42.816060" lon="0.269047">
        <ele>2065.6</ele>
        <time>2018-10-24T12:34:15Z</time>
      </trkpt>
      <trkpt lat="42.815980" lon="0.268987">
        <ele>2070.8</ele>
        <time>2018-10-24T12:34:46Z</time>
      </trkpt>
      <trkpt lat="42.815893" lon="0.268936">
        <ele>2075.2</ele>
        <time>2018-10-24T12:35:08Z</time>
      </trkpt>
      <trkpt lat="42.815819" lon="0.268867">
        <ele>2079.4</ele>
        <time>2018-10-24T12:35:33Z</time>
      </trkpt>
      <trkpt lat="42.815735" lon="0.268828">
        <ele>2083.6</ele>
        <time>2018-10-24T12:35:55Z</time>
      </trkpt>
      <trkpt lat="42.815675" lon="0.268743">
        <ele>2088.3</ele>
        <time>2018-10-24T12:36:20Z</time>
      </trkpt>
      <trkpt lat="42.815599" lon="0.268696">
        <ele>2091.8</ele>
        <time>2018-10-24T12:36:39Z</time>
      </trkpt>
      <trkpt lat="42.815528" lon="0.268622">
        <ele>2096.6</ele>
        <time>2018-10-24T12:36:59Z</time>
      </trkpt>
      <trkpt lat="42.815445" lon="0.268596">
        <ele>2101.1</ele>
        <time>2018-10-24T12:37:22Z</time>
      </trkpt>
      <trkpt lat="42.815375" lon="0.268543">
        <ele>2106.5</ele>
        <time>2018-10-24T12:38:03Z</time>
      </trkpt>
      <trkpt lat="42.815306" lon="0.268459">
        <ele>2107.8</ele>
        <time>2018-10-24T12:38:17Z</time>
      </trkpt>
      <trkpt lat="42.815267" lon="0.268352">
        <ele>2111.0</ele>
        <time>2018-10-24T12:38:33Z</time>
      </trkpt>
      <trkpt lat="42.815218" lon="0.268229">
        <ele>2113.8</ele>
        <time>2018-10-24T12:38:46Z</time>
      </trkpt>
      <trkpt lat="42.815178" lon="0.268100">
        <ele>2116.9</ele>
        <time>2018-10-24T12:39:00Z</time>
      </trkpt>
      <trkpt lat="42.815151" lon="0.267973">
        <ele>2119.1</ele>
        <time>2018-10-24T12:39:14Z</time>
      </trkpt>
      <trkpt lat="42.815118" lon="0.267853">
        <ele>2122.1</ele>
        <time>2018-10-24T12:39:29Z</time>
      </trkpt>
      <trkpt lat="42.815091" lon="0.267732">
        <ele>2124.9</ele>
        <time>2018-10-24T12:39:44Z</time>
      </trkpt>
      <trkpt lat="42.815052" lon="0.267611">
        <ele>2127.8</ele>
        <time>2018-10-24T12:40:00Z</time>
      </trkpt>
      <trkpt lat="42.814994" lon="0.267487">
        <ele>2130.3</ele>
        <time>2018-10-24T12:40:13Z</time>
      </trkpt>
      <trkpt lat="42.814953" lon="0.267375">
        <ele>2132.4</ele>
        <time>2018-10-24T12:40:26Z</time>
      </trkpt>
      <trkpt lat="42.814912" lon="0.267252">
        <ele>2135.4</ele>
        <time>2018-10-24T12:40:42Z</time>
      </trkpt>
      <trkpt lat="42.814876" lon="0.267119">
        <ele>2137.8</ele>
        <time>2018-10-24T12:40:54Z</time>
      </trkpt>
      <trkpt lat="42.814840" lon="0.266997">
        <ele>2141.2</ele>
        <time>2018-10-24T12:41:10Z</time>
      </trkpt>
      <trkpt lat="42.814786" lon="0.266903">
        <ele>2143.6</ele>
        <time>2018-10-24T12:41:23Z</time>
      </trkpt>
      <trkpt lat="42.814755" lon="0.266791">
        <ele>2146.6</ele>
        <time>2018-10-24T12:41:38Z</time>
      </trkpt>
      <trkpt lat="42.814719" lon="0.266666">
        <ele>2149.6</ele>
        <time>2018-10-24T12:41:53Z</time>
      </trkpt>
      <trkpt lat="42.814676" lon="0.266557">
        <ele>2152.5</ele>
        <time>2018-10-24T12:42:08Z</time>
      </trkpt>
      <trkpt lat="42.814640" lon="0.266433">
        <ele>2156.0</ele>
        <time>2018-10-24T12:42:24Z</time>
      </trkpt>
      <trkpt lat="42.814597" lon="0.266326">
        <ele>2158.4</ele>
        <time>2018-10-24T12:42:38Z</time>
      </trkpt>
      <trkpt lat="42.814567" lon="0.266215">
        <ele>2161.4</ele>
        <time>2018-10-24T12:42:52Z</time>
      </trkpt>
      <trkpt lat="42.814532" lon="0.266120">
        <ele>2165.2</ele>
        <time>2018-10-24T12:43:18Z</time>
      </trkpt>
      <trkpt lat="42.814487" lon="0.265995">
        <ele>2168.2</ele>
        <time>2018-10-24T12:43:35Z</time>
      </trkpt>
      <trkpt lat="42.814437" lon="0.265874">
        <ele>2171.9</ele>
        <time>2018-10-24T12:43:51Z</time>
      </trkpt>
      <trkpt lat="42.814392" lon="0.265748">
        <ele>2174.9</ele>
        <time>2018-10-24T12:44:04Z</time>
      </trkpt>
      <trkpt lat="42.814350" lon="0.265651">
        <ele>2177.9</ele>
        <time>2018-10-24T12:44:18Z</time>
      </trkpt>
      <trkpt lat="42.814308" lon="0.265510">
        <ele>2182.3</ele>
        <time>2018-10-24T12:44:35Z</time>
      </trkpt>
      <trkpt lat="42.814267" lon="0.265418">
        <ele>2185.2</ele>
        <time>2018-10-24T12:44:49Z</time>
      </trkpt>
      <trkpt lat="42.814226" lon="0.265310">
        <ele>2188.6</ele>
        <time>2018-10-24T12:45:04Z</time>
      </trkpt>
      <trkpt lat="42.814196" lon="0.265188">
        <ele>2190.8</ele>
        <time>2018-10-24T12:45:17Z</time>
      </trkpt>
      <trkpt lat="42.814155" lon="0.265070">
        <ele>2194.1</ele>
        <time>2018-10-24T12:45:33Z</time>
      </trkpt>
      <trkpt lat="42.814141" lon="0.264940">
        <ele>2197.2</ele>
        <time>2018-10-24T12:45:48Z</time>
      </trkpt>
      <trkpt lat="42.814099" lon="0.264811">
        <ele>2199.9</ele>
        <time>2018-10-24T12:46:00Z</time>
      </trkpt>
      <trkpt lat="42.814064" lon="0.264693">
        <ele>2202.0</ele>
        <time>2018-10-24T12:46:12Z</time>
      </trkpt>
      <trkpt lat="42.814065" lon="0.264571">
        <ele>2203.0</ele>
        <time>2018-10-24T12:46:22Z</time>
      </trkpt>
      <trkpt lat="42.814058" lon="0.264455">
        <ele>2205.3</ele>
        <time>2018-10-24T12:46:37Z</time>
      </trkpt>
      <trkpt lat="42.814022" lon="0.264419">
        <ele>2208.7</ele>
        <time>2018-10-24T12:48:43Z</time>
      </trkpt>
      <trkpt lat="42.813987" lon="0.264306">
        <ele>2209.8</ele>
        <time>2018-10-24T12:48:56Z</time>
      </trkpt>
      <trkpt lat="42.813943" lon="0.264179">
        <ele>2211.7</ele>
        <time>2018-10-24T12:49:09Z</time>
      </trkpt>
      <trkpt lat="42.813919" lon="0.264047">
        <ele>2213.6</ele>
        <time>2018-10-24T12:49:21Z</time>
      </trkpt>
      <trkpt lat="42.813906" lon="0.263911">
        <ele>2216.1</ele>
        <time>2018-10-24T12:49:34Z</time>
      </trkpt>
      <trkpt lat="42.813890" lon="0.263785">
        <ele>2218.7</ele>
        <time>2018-10-24T12:49:49Z</time>
      </trkpt>
      <trkpt lat="42.813883" lon="0.263654">
        <ele>2222.2</ele>
        <time>2018-10-24T12:50:06Z</time>
      </trkpt>
      <trkpt lat="42.813905" lon="0.263531">
        <ele>2224.0</ele>
        <time>2018-10-24T12:50:18Z</time>
      </trkpt>
      <trkpt lat="42.813929" lon="0.263412">
        <ele>2226.2</ele>
        <time>2018-10-24T12:50:30Z</time>
      </trkpt>
      <trkpt lat="42.813923" lon="0.263286">
        <ele>2228.0</ele>
        <time>2018-10-24T12:50:42Z</time>
      </trkpt>
      <trkpt lat="42.813907" lon="0.263168">
        <ele>2230.5</ele>
        <time>2018-10-24T12:50:58Z</time>
      </trkpt>
      <trkpt lat="42.813886" lon="0.263036">
        <ele>2233.7</ele>
        <time>2018-10-24T12:51:14Z</time>
      </trkpt>
      <trkpt lat="42.813840" lon="0.262930">
        <ele>2236.9</ele>
        <time>2018-10-24T12:51:31Z</time>
      </trkpt>
      <trkpt lat="42.813857" lon="0.262815">
        <ele>2239.2</ele>
        <time>2018-10-24T12:51:46Z</time>
      </trkpt>
      <trkpt lat="42.813853" lon="0.262683">
        <ele>2241.5</ele>
        <time>2018-10-24T12:52:01Z</time>
      </trkpt>
      <trkpt lat="42.813820" lon="0.262552">
        <ele>2244.1</ele>
        <time>2018-10-24T12:52:15Z</time>
      </trkpt>
      <trkpt lat="42.813785" lon="0.262462">
        <ele>2246.7</ele>
        <time>2018-10-24T12:52:38Z</time>
      </trkpt>
      <trkpt lat="42.813775" lon="0.262350">
        <ele>2248.0</ele>
        <time>2018-10-24T12:52:53Z</time>
      </trkpt>
      <trkpt lat="42.813730" lon="0.262236">
        <ele>2248.7</ele>
        <time>2018-10-24T12:53:02Z</time>
      </trkpt>
      <trkpt lat="42.813725" lon="0.262106">
        <ele>2250.1</ele>
        <time>2018-10-24T12:53:15Z</time>
      </trkpt>
      <trkpt lat="42.813722" lon="0.261989">
        <ele>2251.3</ele>
        <time>2018-10-24T12:53:27Z</time>
      </trkpt>
      <trkpt lat="42.813766" lon="0.261863">
        <ele>2253.0</ele>
        <time>2018-10-24T12:53:39Z</time>
      </trkpt>
      <trkpt lat="42.813790" lon="0.261767">
        <ele>2255.9</ele>
        <time>2018-10-24T12:53:52Z</time>
      </trkpt>
      <trkpt lat="42.813795" lon="0.261640">
        <ele>2257.5</ele>
        <time>2018-10-24T12:54:03Z</time>
      </trkpt>
      <trkpt lat="42.813802" lon="0.261514">
        <ele>2259.7</ele>
        <time>2018-10-24T12:54:18Z</time>
      </trkpt>
      <trkpt lat="42.813828" lon="0.261391">
        <ele>2261.9</ele>
        <time>2018-10-24T12:54:29Z</time>
      </trkpt>
      <trkpt lat="42.813822" lon="0.261251">
        <ele>2263.8</ele>
        <time>2018-10-24T12:54:43Z</time>
      </trkpt>
      <trkpt lat="42.813821" lon="0.261124">
        <ele>2267.1</ele>
        <time>2018-10-24T12:55:01Z</time>
      </trkpt>
      <trkpt lat="42.813803" lon="0.260995">
        <ele>2270.7</ele>
        <time>2018-10-24T12:55:18Z</time>
      </trkpt>
      <trkpt lat="42.813771" lon="0.260896">
        <ele>2273.1</ele>
        <time>2018-10-24T12:55:33Z</time>
      </trkpt>
      <trkpt lat="42.813788" lon="0.260767">
        <ele>2275.7</ele>
        <time>2018-10-24T12:55:47Z</time>
      </trkpt>
      <trkpt lat="42.813826" lon="0.260646">
        <ele>2278.5</ele>
        <time>2018-10-24T12:56:02Z</time>
      </trkpt>
      <trkpt lat="42.813856" lon="0.260510">
        <ele>2280.3</ele>
        <time>2018-10-24T12:56:13Z</time>
      </trkpt>
      <trkpt lat="42.813892" lon="0.260396">
        <ele>2282.2</ele>
        <time>2018-10-24T12:56:25Z</time>
      </trkpt>
      <trkpt lat="42.813881" lon="0.260277">
        <ele>2285.2</ele>
        <time>2018-10-24T12:56:43Z</time>
      </trkpt>
      <trkpt lat="42.813895" lon="0.260149">
        <ele>2288.7</ele>
        <time>2018-10-24T12:56:59Z</time>
      </trkpt>
      <trkpt lat="42.813947" lon="0.260039">
        <ele>2291.8</ele>
        <time>2018-10-24T12:57:13Z</time>
      </trkpt>
      <trkpt lat="42.814016" lon="0.259959">
        <ele>2295.6</ele>
        <time>2018-10-24T12:57:31Z</time>
      </trkpt>
      <trkpt lat="42.814065" lon="0.259869">
        <ele>2299.9</ele>
        <time>2018-10-24T12:57:56Z</time>
      </trkpt>
      <trkpt lat="42.814086" lon="0.259765">
        <ele>2303.9</ele>
        <time>2018-10-24T12:58:17Z</time>
      </trkpt>
      <trkpt lat="42.814080" lon="0.259665">
        <ele>2308.9</ele>
        <time>2018-10-24T12:58:43Z</time>
      </trkpt>
      <trkpt lat="42.814051" lon="0.259599">
        <ele>2314.0</ele>
        <time>2018-10-24T12:59:07Z</time>
      </trkpt>
      <trkpt lat="42.814060" lon="0.259494">
        <ele>2317.9</ele>
        <time>2018-10-24T12:59:25Z</time>
      </trkpt>
      <trkpt lat="42.814027" lon="0.259395">
        <ele>2323.1</ele>
        <time>2018-10-24T12:59:50Z</time>
      </trkpt>
      <trkpt lat="42.814042" lon="0.259276">
        <ele>2326.5</ele>
        <time>2018-10-24T13:00:04Z</time>
      </trkpt>
      <trkpt lat="42.814044" lon="0.259155">
        <ele>2330.6</ele>
        <time>2018-10-24T13:00:23Z</time>
      </trkpt>
      <trkpt lat="42.814015" lon="0.259034">
        <ele>2333.4</ele>
        <time>2018-10-24T13:00:45Z</time>
      </trkpt>
      <trkpt lat="42.813990" lon="0.258908">
        <ele>2334.9</ele>
        <time>2018-10-24T13:00:56Z</time>
      </trkpt>
      <trkpt lat="42.813957" lon="0.258805">
        <ele>2337.5</ele>
        <time>2018-10-24T13:01:07Z</time>
      </trkpt>
      <trkpt lat="42.813921" lon="0.258719">
        <ele>2342.5</ele>
        <time>2018-10-24T13:01:24Z</time>
      </trkpt>
      <trkpt lat="42.813887" lon="0.258608">
        <ele>2347.7</ele>
        <time>2018-10-24T13:02:08Z</time>
      </trkpt>
      <trkpt lat="42.813852" lon="0.258487">
        <ele>2352.0</ele>
        <time>2018-10-24T13:02:28Z</time>
      </trkpt>
      <trkpt lat="42.813813" lon="0.258366">
        <ele>2355.7</ele>
        <time>2018-10-24T13:02:43Z</time>
      </trkpt>
      <trkpt lat="42.813824" lon="0.258219">
        <ele>2356.5</ele>
        <time>2018-10-24T13:02:59Z</time>
      </trkpt>
      <trkpt lat="42.813811" lon="0.258081">
        <ele>2358.2</ele>
        <time>2018-10-24T13:03:14Z</time>
      </trkpt>
      <trkpt lat="42.813760" lon="0.257965">
        <ele>2361.4</ele>
        <time>2018-10-24T13:03:28Z</time>
      </trkpt>
      <trkpt lat="42.813725" lon="0.257845">
        <ele>2364.1</ele>
        <time>2018-10-24T13:03:41Z</time>
        <name>Soum de Matte</name>
      </trkpt>
      <trkpt lat="42.813705" lon="0.257812">
        <ele>2366.9</ele>
        <time>2018-10-24T13:09:28Z</time>
      </trkpt>
      <trkpt lat="42.813670" lon="0.257689">
        <ele>2361.7</ele>
        <time>2018-10-24T13:10:02Z</time>
      </trkpt>
      <trkpt lat="42.813631" lon="0.257618">
        <ele>2357.3</ele>
        <time>2018-10-24T13:10:23Z</time>
      </trkpt>
      <trkpt lat="42.813573" lon="0.257509">
        <ele>2352.0</ele>
        <time>2018-10-24T13:10:41Z</time>
      </trkpt>
      <trkpt lat="42.813511" lon="0.257408">
        <ele>2350.2</ele>
        <time>2018-10-24T13:10:52Z</time>
      </trkpt>
      <trkpt lat="42.813464" lon="0.257295">
        <ele>2348.7</ele>
        <time>2018-10-24T13:11:11Z</time>
      </trkpt>
      <trkpt lat="42.813423" lon="0.257173">
        <ele>2348.1</ele>
        <time>2018-10-24T13:11:25Z</time>
      </trkpt>
      <trkpt lat="42.813382" lon="0.257053">
        <ele>2347.1</ele>
        <time>2018-10-24T13:11:43Z</time>
      </trkpt>
      <trkpt lat="42.813369" lon="0.256931">
        <ele>2350.2</ele>
        <time>2018-10-24T13:12:02Z</time>
      </trkpt>
      <trkpt lat="42.813316" lon="0.256830">
        <ele>2349.9</ele>
        <time>2018-10-24T13:12:14Z</time>
      </trkpt>
      <trkpt lat="42.813287" lon="0.256751">
        <ele>2348.0</ele>
        <time>2018-10-24T13:12:28Z</time>
      </trkpt>
      <trkpt lat="42.813238" lon="0.256647">
        <ele>2346.6</ele>
        <time>2018-10-24T13:12:39Z</time>
      </trkpt>
      <trkpt lat="42.813229" lon="0.256546">
        <ele>2346.6</ele>
        <time>2018-10-24T13:12:56Z</time>
      </trkpt>
      <trkpt lat="42.813187" lon="0.256507">
        <ele>2345.5</ele>
        <time>2018-10-24T13:13:13Z</time>
      </trkpt>
      <trkpt lat="42.813127" lon="0.256415">
        <ele>2342.4</ele>
        <time>2018-10-24T13:13:30Z</time>
      </trkpt>
      <trkpt lat="42.813056" lon="0.256352">
        <ele>2340.0</ele>
        <time>2018-10-24T13:13:47Z</time>
      </trkpt>
      <trkpt lat="42.812974" lon="0.256247">
        <ele>2336.6</ele>
        <time>2018-10-24T13:13:59Z</time>
      </trkpt>
      <trkpt lat="42.812919" lon="0.256216">
        <ele>2334.9</ele>
        <time>2018-10-24T13:14:22Z</time>
      </trkpt>
      <trkpt lat="42.812831" lon="0.256165">
        <ele>2338.6</ele>
        <time>2018-10-24T13:15:16Z</time>
      </trkpt>
      <trkpt lat="42.812794" lon="0.256095">
        <ele>2343.4</ele>
        <time>2018-10-24T13:15:35Z</time>
      </trkpt>
      <trkpt lat="42.812764" lon="0.255994">
        <ele>2345.1</ele>
        <time>2018-10-24T13:15:51Z</time>
      </trkpt>
      <trkpt lat="42.812737" lon="0.255929">
        <ele>2345.7</ele>
        <time>2018-10-24T13:16:59Z</time>
      </trkpt>
      <trkpt lat="42.812700" lon="0.255832">
        <ele>2343.7</ele>
        <time>2018-10-24T13:17:17Z</time>
      </trkpt>
      <trkpt lat="42.812667" lon="0.255705">
        <ele>2345.0</ele>
        <time>2018-10-24T13:17:32Z</time>
      </trkpt>
      <trkpt lat="42.812614" lon="0.255580">
        <ele>2345.4</ele>
        <time>2018-10-24T13:17:47Z</time>
      </trkpt>
      <trkpt lat="42.812585" lon="0.255442">
        <ele>2345.4</ele>
        <time>2018-10-24T13:18:01Z</time>
      </trkpt>
      <trkpt lat="42.812564" lon="0.255309">
        <ele>2344.3</ele>
        <time>2018-10-24T13:18:28Z</time>
      </trkpt>
      <trkpt lat="42.812576" lon="0.255172">
        <ele>2342.9</ele>
        <time>2018-10-24T13:18:39Z</time>
      </trkpt>
      <trkpt lat="42.812513" lon="0.255119">
        <ele>2342.6</ele>
        <time>2018-10-24T13:19:07Z</time>
      </trkpt>
      <trkpt lat="42.812467" lon="0.255002">
        <ele>2340.0</ele>
        <time>2018-10-24T13:19:25Z</time>
      </trkpt>
      <trkpt lat="42.812453" lon="0.254876">
        <ele>2342.6</ele>
        <time>2018-10-24T13:19:37Z</time>
      </trkpt>
      <trkpt lat="42.812397" lon="0.254789">
        <ele>2343.4</ele>
        <time>2018-10-24T13:19:46Z</time>
      </trkpt>
      <trkpt lat="42.812353" lon="0.254680">
        <ele>2342.6</ele>
        <time>2018-10-24T13:19:59Z</time>
      </trkpt>
      <trkpt lat="42.812338" lon="0.254592">
        <ele>2344.6</ele>
        <time>2018-10-24T13:20:16Z</time>
      </trkpt>
      <trkpt lat="42.812355" lon="0.254545">
        <ele>2347.8</ele>
        <time>2018-10-24T13:20:34Z</time>
      </trkpt>
      <trkpt lat="42.812317" lon="0.254447">
        <ele>2348.9</ele>
        <time>2018-10-24T13:20:53Z</time>
      </trkpt>
      <trkpt lat="42.812258" lon="0.254351">
        <ele>2345.9</ele>
        <time>2018-10-24T13:21:10Z</time>
      </trkpt>
      <trkpt lat="42.812251" lon="0.254271">
        <ele>2341.2</ele>
        <time>2018-10-24T13:23:02Z</time>
      </trkpt>
      <trkpt lat="42.812216" lon="0.254139">
        <ele>2338.8</ele>
        <time>2018-10-24T13:23:39Z</time>
      </trkpt>
      <trkpt lat="42.812187" lon="0.254009">
        <ele>2338.4</ele>
        <time>2018-10-24T13:23:52Z</time>
      </trkpt>
      <trkpt lat="42.812177" lon="0.253916">
        <ele>2335.6</ele>
        <time>2018-10-24T13:24:16Z</time>
      </trkpt>
      <trkpt lat="42.812202" lon="0.253831">
        <ele>2339.1</ele>
        <time>2018-10-24T13:24:36Z</time>
      </trkpt>
      <trkpt lat="42.812185" lon="0.253725">
        <ele>2343.8</ele>
        <time>2018-10-24T13:24:58Z</time>
      </trkpt>
      <trkpt lat="42.812178" lon="0.253618">
        <ele>2349.3</ele>
        <time>2018-10-24T13:25:25Z</time>
      </trkpt>
      <trkpt lat="42.812154" lon="0.253490">
        <ele>2352.0</ele>
        <time>2018-10-24T13:25:52Z</time>
      </trkpt>
      <trkpt lat="42.812112" lon="0.253403">
        <ele>2352.5</ele>
        <time>2018-10-24T13:26:34Z</time>
      </trkpt>
      <trkpt lat="42.812066" lon="0.253281">
        <ele>2350.9</ele>
        <time>2018-10-24T13:27:32Z</time>
      </trkpt>
      <trkpt lat="42.812038" lon="0.253254">
        <ele>2347.8</ele>
        <time>2018-10-24T13:28:21Z</time>
      </trkpt>
      <trkpt lat="42.812040" lon="0.253157">
        <ele>2349.5</ele>
        <time>2018-10-24T13:28:49Z</time>
      </trkpt>
      <trkpt lat="42.812023" lon="0.253029">
        <ele>2352.6</ele>
        <time>2018-10-24T13:30:20Z</time>
      </trkpt>
      <trkpt lat="42.812001" lon="0.252926">
        <ele>2358.1</ele>
        <time>2018-10-24T13:31:14Z</time>
      </trkpt>
      <trkpt lat="42.811991" lon="0.252800">
        <ele>2358.8</ele>
        <time>2018-10-24T13:32:27Z</time>
      </trkpt>
      <trkpt lat="42.811965" lon="0.252654">
        <ele>2360.1</ele>
        <time>2018-10-24T13:33:32Z</time>
      </trkpt>
      <trkpt lat="42.811952" lon="0.252532">
        <ele>2362.6</ele>
        <time>2018-10-24T13:34:18Z</time>
      </trkpt>
      <trkpt lat="42.811933" lon="0.252444">
        <ele>2364.4</ele>
        <time>2018-10-24T13:34:59Z</time>
      </trkpt>
      <trkpt lat="42.811904" lon="0.252363">
        <ele>2364.1</ele>
        <time>2018-10-24T13:36:03Z</time>
      </trkpt>
      <trkpt lat="42.811880" lon="0.252270">
        <ele>2364.2</ele>
        <time>2018-10-24T13:36:24Z</time>
      </trkpt>
      <trkpt lat="42.811867" lon="0.252142">
        <ele>2368.8</ele>
        <time>2018-10-24T13:36:49Z</time>
      </trkpt>
      <trkpt lat="42.811866" lon="0.252018">
        <ele>2373.8</ele>
        <time>2018-10-24T13:38:00Z</time>
      </trkpt>
      <trkpt lat="42.811817" lon="0.251905">
        <ele>2374.4</ele>
        <time>2018-10-24T13:39:05Z</time>
      </trkpt>
      <trkpt lat="42.811800" lon="0.251810">
        <ele>2371.9</ele>
        <time>2018-10-24T13:39:29Z</time>
      </trkpt>
      <trkpt lat="42.811813" lon="0.251682">
        <ele>2370.6</ele>
        <time>2018-10-24T13:39:52Z</time>
      </trkpt>
      <trkpt lat="42.811808" lon="0.251572">
        <ele>2372.9</ele>
        <time>2018-10-24T13:40:06Z</time>
      </trkpt>
      <trkpt lat="42.811839" lon="0.251543">
        <ele>2375.0</ele>
        <time>2018-10-24T13:40:26Z</time>
      </trkpt>
      <trkpt lat="42.811858" lon="0.251473">
        <ele>2381.9</ele>
        <time>2018-10-24T13:42:37Z</time>
      </trkpt>
      <trkpt lat="42.811843" lon="0.251346">
        <ele>2382.6</ele>
        <time>2018-10-24T13:42:57Z</time>
      </trkpt>
      <trkpt lat="42.811828" lon="0.251251">
        <ele>2383.6</ele>
        <time>2018-10-24T13:43:21Z</time>
      </trkpt>
      <trkpt lat="42.811842" lon="0.251121">
        <ele>2387.9</ele>
        <time>2018-10-24T13:43:45Z</time>
      </trkpt>
      <trkpt lat="42.811840" lon="0.250982">
        <ele>2391.8</ele>
        <time>2018-10-24T13:44:19Z</time>
      </trkpt>
      <trkpt lat="42.811854" lon="0.250908">
        <ele>2395.3</ele>
        <time>2018-10-24T13:44:45Z</time>
      </trkpt>
      <trkpt lat="42.811798" lon="0.250780">
        <ele>2395.7</ele>
        <time>2018-10-24T13:45:00Z</time>
      </trkpt>
      <trkpt lat="42.811773" lon="0.250671">
        <ele>2395.6</ele>
        <time>2018-10-24T13:45:47Z</time>
      </trkpt>
      <trkpt lat="42.811759" lon="0.250551">
        <ele>2397.8</ele>
        <time>2018-10-24T13:46:04Z</time>
      </trkpt>
      <trkpt lat="42.811790" lon="0.250452">
        <ele>2403.1</ele>
        <time>2018-10-24T13:46:25Z</time>
      </trkpt>
      <trkpt lat="42.811833" lon="0.250372">
        <ele>2408.5</ele>
        <time>2018-10-24T13:46:51Z</time>
      </trkpt>
      <trkpt lat="42.811846" lon="0.250272">
        <ele>2412.6</ele>
        <time>2018-10-24T13:47:17Z</time>
      </trkpt>
      <trkpt lat="42.811863" lon="0.250199">
        <ele>2417.1</ele>
        <time>2018-10-24T13:47:47Z</time>
      </trkpt>
      <trkpt lat="42.811957" lon="0.250160">
        <ele>2421.9</ele>
        <time>2018-10-24T13:48:13Z</time>
      </trkpt>
      <trkpt lat="42.811995" lon="0.250102">
        <ele>2425.8</ele>
        <time>2018-10-24T13:48:35Z</time>
      </trkpt>
      <trkpt lat="42.812049" lon="0.250026">
        <ele>2430.8</ele>
        <time>2018-10-24T13:48:59Z</time>
      </trkpt>
      <trkpt lat="42.812081" lon="0.249980">
        <ele>2435.0</ele>
        <time>2018-10-24T13:49:17Z</time>
      </trkpt>
      <trkpt lat="42.812101" lon="0.249892">
        <ele>2439.7</ele>
        <time>2018-10-24T13:49:45Z</time>
      </trkpt>
      <trkpt lat="42.812107" lon="0.249785">
        <ele>2444.6</ele>
        <time>2018-10-24T13:50:17Z</time>
      </trkpt>
      <trkpt lat="42.812149" lon="0.249728">
        <ele>2448.9</ele>
        <time>2018-10-24T13:50:57Z</time>
      </trkpt>
      <trkpt lat="42.812179" lon="0.249665">
        <ele>2453.0</ele>
        <time>2018-10-24T13:51:17Z</time>
      </trkpt>
      <trkpt lat="42.812184" lon="0.249577">
        <ele>2458.2</ele>
        <time>2018-10-24T13:51:39Z</time>
      </trkpt>
      <trkpt lat="42.812139" lon="0.249529">
        <ele>2459.6</ele>
        <time>2018-10-24T13:53:20Z</time>
      </trkpt>
      <trkpt lat="42.812146" lon="0.249405">
        <ele>2462.4</ele>
        <time>2018-10-24T13:53:39Z</time>
      </trkpt>
      <trkpt lat="42.812096" lon="0.249306">
        <ele>2468.0</ele>
        <time>2018-10-24T13:54:17Z</time>
      </trkpt>
      <trkpt lat="42.812062" lon="0.249199">
        <ele>2472.9</ele>
        <time>2018-10-24T13:54:38Z</time>
      </trkpt>
      <trkpt lat="42.812043" lon="0.249108">
        <ele>2478.7</ele>
        <time>2018-10-24T13:55:04Z</time>
      </trkpt>
      <trkpt lat="42.812026" lon="0.249014">
        <ele>2486.1</ele>
        <time>2018-10-24T13:55:35Z</time>
      </trkpt>
      <trkpt lat="42.811964" lon="0.248926">
        <ele>2491.6</ele>
        <time>2018-10-24T13:56:08Z</time>
      </trkpt>
      <trkpt lat="42.811927" lon="0.248801">
        <ele>2496.2</ele>
        <time>2018-10-24T13:56:35Z</time>
      </trkpt>
      <trkpt lat="42.811937" lon="0.248721">
        <ele>2502.6</ele>
        <time>2018-10-24T13:57:13Z</time>
      </trkpt>
      <trkpt lat="42.811882" lon="0.248648">
        <ele>2506.7</ele>
        <time>2018-10-24T13:57:37Z</time>
      </trkpt>
      <trkpt lat="42.811837" lon="0.248605">
        <ele>2511.9</ele>
        <time>2018-10-24T13:58:18Z</time>
      </trkpt>
      <trkpt lat="42.811841" lon="0.248521">
        <ele>2516.1</ele>
        <time>2018-10-24T13:58:44Z</time>
      </trkpt>
      <trkpt lat="42.811818" lon="0.248438">
        <ele>2520.4</ele>
        <time>2018-10-24T13:59:10Z</time>
      </trkpt>
      <trkpt lat="42.811833" lon="0.248304">
        <ele>2524.1</ele>
        <time>2018-10-24T13:59:29Z</time>
      </trkpt>
      <trkpt lat="42.811821" lon="0.248169">
        <ele>2527.2</ele>
        <time>2018-10-24T13:59:52Z</time>
      </trkpt>
      <trkpt lat="42.811831" lon="0.248038">
        <ele>2530.0</ele>
        <time>2018-10-24T14:00:10Z</time>
      </trkpt>
      <trkpt lat="42.811855" lon="0.247932">
        <ele>2532.9</ele>
        <time>2018-10-24T14:00:30Z</time>
      </trkpt>
      <trkpt lat="42.811898" lon="0.247831">
        <ele>2536.6</ele>
        <time>2018-10-24T14:00:52Z</time>
      </trkpt>
      <trkpt lat="42.811930" lon="0.247772">
        <ele>2540.4</ele>
        <time>2018-10-24T14:01:20Z</time>
      </trkpt>
      <trkpt lat="42.811998" lon="0.247683">
        <ele>2545.4</ele>
        <time>2018-10-24T14:01:48Z</time>
      </trkpt>
      <trkpt lat="42.811997" lon="0.247623">
        <ele>2550.5</ele>
        <time>2018-10-24T14:02:17Z</time>
      </trkpt>
      <trkpt lat="42.812019" lon="0.247501">
        <ele>2554.4</ele>
        <time>2018-10-24T14:02:51Z</time>
        <name>Pic Arrouye</name>
      </trkpt>
      <trkpt lat="42.812003" lon="0.247490">
        <ele>2554.5</ele>
        <time>2018-10-24T14:05:42Z</time>
      </trkpt>
      <trkpt lat="42.812046" lon="0.247383">
        <ele>2553.9</ele>
        <time>2018-10-24T14:06:32Z</time>
      </trkpt>
      <trkpt lat="42.812075" lon="0.247263">
        <ele>2552.6</ele>
        <time>2018-10-24T14:06:43Z</time>
      </trkpt>
      <trkpt lat="42.812106" lon="0.247142">
        <ele>2548.4</ele>
        <time>2018-10-24T14:07:03Z</time>
      </trkpt>
      <trkpt lat="42.812132" lon="0.247008">
        <ele>2545.0</ele>
        <time>2018-10-24T14:07:25Z</time>
      </trkpt>
      <trkpt lat="42.812173" lon="0.246885">
        <ele>2543.3</ele>
        <time>2018-10-24T14:07:36Z</time>
      </trkpt>
      <trkpt lat="42.812228" lon="0.246770">
        <ele>2541.9</ele>
        <time>2018-10-24T14:07:48Z</time>
      </trkpt>
      <trkpt lat="42.812261" lon="0.246654">
        <ele>2540.3</ele>
        <time>2018-10-24T14:08:01Z</time>
      </trkpt>
      <trkpt lat="42.812308" lon="0.246542">
        <ele>2538.1</ele>
        <time>2018-10-24T14:08:10Z</time>
      </trkpt>
      <trkpt lat="42.812384" lon="0.246475">
        <ele>2536.4</ele>
        <time>2018-10-24T14:08:19Z</time>
      </trkpt>
      <trkpt lat="42.812447" lon="0.246369">
        <ele>2537.3</ele>
        <time>2018-10-24T14:08:29Z</time>
      </trkpt>
      <trkpt lat="42.812516" lon="0.246279">
        <ele>2538.0</ele>
        <time>2018-10-24T14:08:39Z</time>
      </trkpt>
      <trkpt lat="42.812550" lon="0.246163">
        <ele>2539.3</ele>
        <time>2018-10-24T14:08:53Z</time>
      </trkpt>
      <trkpt lat="42.812591" lon="0.246036">
        <ele>2540.6</ele>
        <time>2018-10-24T14:09:03Z</time>
      </trkpt>
      <trkpt lat="42.812653" lon="0.245909">
        <ele>2541.6</ele>
        <time>2018-10-24T14:09:17Z</time>
      </trkpt>
      <trkpt lat="42.812654" lon="0.245790">
        <ele>2546.6</ele>
        <time>2018-10-24T14:09:38Z</time>
      </trkpt>
      <trkpt lat="42.812719" lon="0.245711">
        <ele>2551.5</ele>
        <time>2018-10-24T14:10:00Z</time>
      </trkpt>
      <trkpt lat="42.812796" lon="0.245618">
        <ele>2555.3</ele>
        <time>2018-10-24T14:10:20Z</time>
      </trkpt>
      <trkpt lat="42.812870" lon="0.245537">
        <ele>2557.1</ele>
        <time>2018-10-24T14:10:35Z</time>
      </trkpt>
      <trkpt lat="42.812940" lon="0.245437">
        <ele>2558.3</ele>
        <time>2018-10-24T14:10:51Z</time>
      </trkpt>
      <trkpt lat="42.812993" lon="0.245324">
        <ele>2560.4</ele>
        <time>2018-10-24T14:11:08Z</time>
      </trkpt>
      <trkpt lat="42.813056" lon="0.245200">
        <ele>2563.2</ele>
        <time>2018-10-24T14:11:22Z</time>
      </trkpt>
      <trkpt lat="42.813112" lon="0.245097">
        <ele>2565.7</ele>
        <time>2018-10-24T14:11:36Z</time>
      </trkpt>
      <trkpt lat="42.813194" lon="0.245038">
        <ele>2566.6</ele>
        <time>2018-10-24T14:11:49Z</time>
      </trkpt>
      <trkpt lat="42.813272" lon="0.244980">
        <ele>2565.9</ele>
        <time>2018-10-24T14:12:05Z</time>
      </trkpt>
      <trkpt lat="42.813363" lon="0.244936">
        <ele>2565.8</ele>
        <time>2018-10-24T14:12:18Z</time>
      </trkpt>
      <trkpt lat="42.813445" lon="0.244859">
        <ele>2565.8</ele>
        <time>2018-10-24T14:12:29Z</time>
      </trkpt>
      <trkpt lat="42.813529" lon="0.244793">
        <ele>2564.7</ele>
        <time>2018-10-24T14:12:38Z</time>
      </trkpt>
      <trkpt lat="42.813617" lon="0.244740">
        <ele>2564.1</ele>
        <time>2018-10-24T14:12:48Z</time>
      </trkpt>
      <trkpt lat="42.813697" lon="0.244731">
        <ele>2566.6</ele>
        <time>2018-10-24T14:13:05Z</time>
      </trkpt>
      <trkpt lat="42.813768" lon="0.244766">
        <ele>2572.6</ele>
        <time>2018-10-24T14:13:34Z</time>
      </trkpt>
      <trkpt lat="42.813836" lon="0.244732">
        <ele>2578.5</ele>
        <time>2018-10-24T14:15:17Z</time>
      </trkpt>
      <trkpt lat="42.813837" lon="0.244701">
        <ele>2579.2</ele>
        <time>2018-10-24T14:23:19Z</time>
      </trkpt>
      <trkpt lat="42.813860" lon="0.244606">
        <ele>2577.2</ele>
        <time>2018-10-24T14:23:33Z</time>
      </trkpt>
      <trkpt lat="42.813893" lon="0.244510">
        <ele>2573.6</ele>
        <time>2018-10-24T14:23:45Z</time>
      </trkpt>
      <trkpt lat="42.813881" lon="0.244415">
        <ele>2569.7</ele>
        <time>2018-10-24T14:23:56Z</time>
      </trkpt>
      <trkpt lat="42.813868" lon="0.244323">
        <ele>2566.8</ele>
        <time>2018-10-24T14:24:08Z</time>
      </trkpt>
      <trkpt lat="42.813879" lon="0.244197">
        <ele>2563.9</ele>
        <time>2018-10-24T14:24:17Z</time>
      </trkpt>
      <trkpt lat="42.813867" lon="0.244062">
        <ele>2560.1</ele>
        <time>2018-10-24T14:24:34Z</time>
      </trkpt>
      <trkpt lat="42.813866" lon="0.243937">
        <ele>2558.8</ele>
        <time>2018-10-24T14:24:43Z</time>
      </trkpt>
      <trkpt lat="42.813852" lon="0.243817">
        <ele>2557.8</ele>
        <time>2018-10-24T14:24:50Z</time>
      </trkpt>
      <trkpt lat="42.813874" lon="0.243683">
        <ele>2556.9</ele>
        <time>2018-10-24T14:24:58Z</time>
      </trkpt>
      <trkpt lat="42.813879" lon="0.243560">
        <ele>2555.7</ele>
        <time>2018-10-24T14:25:05Z</time>
      </trkpt>
      <trkpt lat="42.813908" lon="0.243427">
        <ele>2555.1</ele>
        <time>2018-10-24T14:25:14Z</time>
      </trkpt>
      <trkpt lat="42.813918" lon="0.243290">
        <ele>2556.2</ele>
        <time>2018-10-24T14:25:22Z</time>
      </trkpt>
      <trkpt lat="42.813927" lon="0.243159">
        <ele>2556.4</ele>
        <time>2018-10-24T14:25:32Z</time>
      </trkpt>
      <trkpt lat="42.813978" lon="0.243055">
        <ele>2556.5</ele>
        <time>2018-10-24T14:25:44Z</time>
      </trkpt>
      <trkpt lat="42.814034" lon="0.242974">
        <ele>2554.3</ele>
        <time>2018-10-24T14:25:56Z</time>
      </trkpt>
      <trkpt lat="42.814065" lon="0.242864">
        <ele>2550.6</ele>
        <time>2018-10-24T14:26:16Z</time>
      </trkpt>
      <trkpt lat="42.814113" lon="0.242742">
        <ele>2547.7</ele>
        <time>2018-10-24T14:26:27Z</time>
      </trkpt>
      <trkpt lat="42.814163" lon="0.242602">
        <ele>2544.1</ele>
        <time>2018-10-24T14:26:38Z</time>
      </trkpt>
      <trkpt lat="42.814241" lon="0.242517">
        <ele>2540.7</ele>
        <time>2018-10-24T14:26:52Z</time>
      </trkpt>
      <trkpt lat="42.814317" lon="0.242413">
        <ele>2537.1</ele>
        <time>2018-10-24T14:27:03Z</time>
      </trkpt>
      <trkpt lat="42.814406" lon="0.242318">
        <ele>2535.0</ele>
        <time>2018-10-24T14:27:11Z</time>
      </trkpt>
      <trkpt lat="42.814486" lon="0.242214">
        <ele>2533.6</ele>
        <time>2018-10-24T14:27:23Z</time>
      </trkpt>
      <trkpt lat="42.814543" lon="0.242106">
        <ele>2533.2</ele>
        <time>2018-10-24T14:27:32Z</time>
      </trkpt>
      <trkpt lat="42.814604" lon="0.242007">
        <ele>2532.0</ele>
        <time>2018-10-24T14:27:42Z</time>
      </trkpt>
      <trkpt lat="42.814694" lon="0.241944">
        <ele>2531.6</ele>
        <time>2018-10-24T14:27:53Z</time>
      </trkpt>
      <trkpt lat="42.814763" lon="0.241887">
        <ele>2535.9</ele>
        <time>2018-10-24T14:28:09Z</time>
      </trkpt>
      <trkpt lat="42.814794" lon="0.241770">
        <ele>2535.9</ele>
        <time>2018-10-24T14:28:29Z</time>
      </trkpt>
      <trkpt lat="42.814818" lon="0.241658">
        <ele>2533.6</ele>
        <time>2018-10-24T14:28:46Z</time>
      </trkpt>
      <trkpt lat="42.814895" lon="0.241586">
        <ele>2533.0</ele>
        <time>2018-10-24T14:28:59Z</time>
      </trkpt>
      <trkpt lat="42.814973" lon="0.241516">
        <ele>2537.1</ele>
        <time>2018-10-24T14:29:20Z</time>
      </trkpt>
      <trkpt lat="42.815023" lon="0.241436">
        <ele>2538.1</ele>
        <time>2018-10-24T14:30:15Z</time>
      </trkpt>
      <trkpt lat="42.815082" lon="0.241343">
        <ele>2537.8</ele>
        <time>2018-10-24T14:30:29Z</time>
      </trkpt>
      <trkpt lat="42.815142" lon="0.241257">
        <ele>2538.2</ele>
        <time>2018-10-24T14:30:42Z</time>
      </trkpt>
      <trkpt lat="42.815203" lon="0.241173">
        <ele>2538.8</ele>
        <time>2018-10-24T14:30:55Z</time>
      </trkpt>
      <trkpt lat="42.815292" lon="0.241091">
        <ele>2536.6</ele>
        <time>2018-10-24T14:31:08Z</time>
      </trkpt>
      <trkpt lat="42.815380" lon="0.241004">
        <ele>2535.3</ele>
        <time>2018-10-24T14:31:20Z</time>
      </trkpt>
      <trkpt lat="42.815449" lon="0.240890">
        <ele>2534.3</ele>
        <time>2018-10-24T14:31:33Z</time>
      </trkpt>
      <trkpt lat="42.815513" lon="0.240812">
        <ele>2534.2</ele>
        <time>2018-10-24T14:31:50Z</time>
      </trkpt>
      <trkpt lat="42.815594" lon="0.240829">
        <ele>2537.6</ele>
        <time>2018-10-24T14:32:09Z</time>
      </trkpt>
      <trkpt lat="42.815696" lon="0.240771">
        <ele>2541.0</ele>
        <time>2018-10-24T14:32:22Z</time>
      </trkpt>
      <trkpt lat="42.815777" lon="0.240696">
        <ele>2541.8</ele>
        <time>2018-10-24T14:32:34Z</time>
      </trkpt>
      <trkpt lat="42.815843" lon="0.240618">
        <ele>2541.6</ele>
        <time>2018-10-24T14:32:45Z</time>
      </trkpt>
      <trkpt lat="42.815910" lon="0.240509">
        <ele>2541.0</ele>
        <time>2018-10-24T14:32:55Z</time>
      </trkpt>
      <trkpt lat="42.815983" lon="0.240454">
        <ele>2541.1</ele>
        <time>2018-10-24T14:33:05Z</time>
      </trkpt>
      <trkpt lat="42.816059" lon="0.240504">
        <ele>2541.9</ele>
        <time>2018-10-24T14:33:15Z</time>
      </trkpt>
      <trkpt lat="42.816152" lon="0.240501">
        <ele>2541.9</ele>
        <time>2018-10-24T14:33:29Z</time>
      </trkpt>
      <trkpt lat="42.816220" lon="0.240429">
        <ele>2538.6</ele>
        <time>2018-10-24T14:33:45Z</time>
      </trkpt>
      <trkpt lat="42.816313" lon="0.240369">
        <ele>2535.1</ele>
        <time>2018-10-24T14:33:55Z</time>
      </trkpt>
      <trkpt lat="42.816373" lon="0.240409">
        <ele>2536.8</ele>
        <time>2018-10-24T14:34:26Z</time>
      </trkpt>
      <trkpt lat="42.816436" lon="0.240421">
        <ele>2541.1</ele>
        <time>2018-10-24T14:34:52Z</time>
      </trkpt>
      <trkpt lat="42.816507" lon="0.240403">
        <ele>2539.2</ele>
        <time>2018-10-24T14:35:10Z</time>
      </trkpt>
      <trkpt lat="42.816576" lon="0.240422">
        <ele>2539.0</ele>
        <time>2018-10-24T14:35:35Z</time>
      </trkpt>
      <trkpt lat="42.816638" lon="0.240394">
        <ele>2542.4</ele>
        <time>2018-10-24T14:35:57Z</time>
      </trkpt>
      <trkpt lat="42.816701" lon="0.240300">
        <ele>2544.5</ele>
        <time>2018-10-24T14:36:41Z</time>
      </trkpt>
      <trkpt lat="42.816765" lon="0.240237">
        <ele>2539.6</ele>
        <time>2018-10-24T14:37:08Z</time>
      </trkpt>
      <trkpt lat="42.816833" lon="0.240147">
        <ele>2536.3</ele>
        <time>2018-10-24T14:37:25Z</time>
      </trkpt>
      <trkpt lat="42.816942" lon="0.240110">
        <ele>2537.2</ele>
        <time>2018-10-24T14:37:42Z</time>
      </trkpt>
      <trkpt lat="42.817027" lon="0.240076">
        <ele>2540.5</ele>
        <time>2018-10-24T14:38:12Z</time>
      </trkpt>
      <trkpt lat="42.817097" lon="0.240027">
        <ele>2545.2</ele>
        <time>2018-10-24T14:38:40Z</time>
      </trkpt>
      <trkpt lat="42.817134" lon="0.240085">
        <ele>2549.8</ele>
        <time>2018-10-24T14:39:09Z</time>
      </trkpt>
      <trkpt lat="42.817188" lon="0.240090">
        <ele>2553.1</ele>
        <time>2018-10-24T14:39:33Z</time>
      </trkpt>
      <trkpt lat="42.817191" lon="0.240082">
        <ele>2559.7</ele>
        <time>2018-10-24T14:41:20Z</time>
      </trkpt>
      <trkpt lat="42.817219" lon="0.240074">
        <ele>2566.6</ele>
        <time>2018-10-24T14:44:38Z</time>
      </trkpt>
      <trkpt lat="42.817279" lon="0.240070">
        <ele>2571.1</ele>
        <time>2018-10-24T14:45:13Z</time>
      </trkpt>
      <trkpt lat="42.817299" lon="0.240039">
        <ele>2574.9</ele>
        <time>2018-10-24T14:46:14Z</time>
      </trkpt>
      <trkpt lat="42.817328" lon="0.239983">
        <ele>2575.3</ele>
        <time>2018-10-24T14:48:51Z</time>
        <name>Pene Male</name>
      </trkpt>
      <trkpt lat="42.817371" lon="0.239875">
        <ele>2573.7</ele>
        <time>2018-10-24T14:49:14Z</time>
      </trkpt>
      <trkpt lat="42.817432" lon="0.239776">
        <ele>2571.4</ele>
        <time>2018-10-24T14:49:37Z</time>
      </trkpt>
      <trkpt lat="42.817457" lon="0.239682">
        <ele>2571.3</ele>
        <time>2018-10-24T14:50:12Z</time>
      </trkpt>
      <trkpt lat="42.817485" lon="0.239545">
        <ele>2571.0</ele>
        <time>2018-10-24T14:50:33Z</time>
      </trkpt>
      <trkpt lat="42.817532" lon="0.239424">
        <ele>2568.4</ele>
        <time>2018-10-24T14:51:03Z</time>
      </trkpt>
      <trkpt lat="42.817562" lon="0.239317">
        <ele>2566.7</ele>
        <time>2018-10-24T14:51:23Z</time>
      </trkpt>
      <trkpt lat="42.817603" lon="0.239216">
        <ele>2561.3</ele>
        <time>2018-10-24T14:51:57Z</time>
      </trkpt>
      <trkpt lat="42.817664" lon="0.239135">
        <ele>2557.0</ele>
        <time>2018-10-24T14:52:22Z</time>
      </trkpt>
      <trkpt lat="42.817717" lon="0.239048">
        <ele>2553.0</ele>
        <time>2018-10-24T14:52:45Z</time>
      </trkpt>
      <trkpt lat="42.817763" lon="0.238954">
        <ele>2548.6</ele>
        <time>2018-10-24T14:53:00Z</time>
      </trkpt>
      <trkpt lat="42.817810" lon="0.238850">
        <ele>2545.3</ele>
        <time>2018-10-24T14:53:16Z</time>
      </trkpt>
      <trkpt lat="42.817853" lon="0.238729">
        <ele>2544.0</ele>
        <time>2018-10-24T14:53:35Z</time>
      </trkpt>
      <trkpt lat="42.817903" lon="0.238622">
        <ele>2541.1</ele>
        <time>2018-10-24T14:53:50Z</time>
      </trkpt>
      <trkpt lat="42.817963" lon="0.238518">
        <ele>2539.8</ele>
        <time>2018-10-24T14:54:02Z</time>
      </trkpt>
      <trkpt lat="42.818002" lon="0.238422">
        <ele>2536.3</ele>
        <time>2018-10-24T14:54:30Z</time>
      </trkpt>
      <trkpt lat="42.818042" lon="0.238315">
        <ele>2534.4</ele>
        <time>2018-10-24T14:54:45Z</time>
      </trkpt>
      <trkpt lat="42.818098" lon="0.238209">
        <ele>2531.7</ele>
        <time>2018-10-24T14:55:00Z</time>
      </trkpt>
      <trkpt lat="42.818136" lon="0.238108">
        <ele>2529.1</ele>
        <time>2018-10-24T14:55:14Z</time>
      </trkpt>
      <trkpt lat="42.818198" lon="0.238000">
        <ele>2528.4</ele>
        <time>2018-10-24T14:55:28Z</time>
      </trkpt>
      <trkpt lat="42.818256" lon="0.237902">
        <ele>2527.8</ele>
        <time>2018-10-24T14:55:40Z</time>
      </trkpt>
      <trkpt lat="42.818305" lon="0.237806">
        <ele>2526.9</ele>
        <time>2018-10-24T14:55:53Z</time>
      </trkpt>
      <trkpt lat="42.818326" lon="0.237666">
        <ele>2528.1</ele>
        <time>2018-10-24T14:56:20Z</time>
      </trkpt>
      <trkpt lat="42.818369" lon="0.237542">
        <ele>2528.0</ele>
        <time>2018-10-24T14:56:34Z</time>
      </trkpt>
      <trkpt lat="42.818462" lon="0.237475">
        <ele>2527.7</ele>
        <time>2018-10-24T14:56:47Z</time>
      </trkpt>
      <trkpt lat="42.818523" lon="0.237425">
        <ele>2528.5</ele>
        <time>2018-10-24T14:57:05Z</time>
      </trkpt>
      <trkpt lat="42.818570" lon="0.237318">
        <ele>2527.8</ele>
        <time>2018-10-24T14:57:21Z</time>
      </trkpt>
      <trkpt lat="42.818641" lon="0.237199">
        <ele>2527.7</ele>
        <time>2018-10-24T14:57:39Z</time>
      </trkpt>
      <trkpt lat="42.818715" lon="0.237166">
        <ele>2530.6</ele>
        <time>2018-10-24T14:58:05Z</time>
      </trkpt>
      <trkpt lat="42.818783" lon="0.237087">
        <ele>2534.4</ele>
        <time>2018-10-24T14:58:34Z</time>
      </trkpt>
      <trkpt lat="42.818826" lon="0.236968">
        <ele>2536.5</ele>
        <time>2018-10-24T14:59:09Z</time>
      </trkpt>
      <trkpt lat="42.818913" lon="0.236944">
        <ele>2539.5</ele>
        <time>2018-10-24T15:00:02Z</time>
      </trkpt>
      <trkpt lat="42.818889" lon="0.236933">
        <ele>2538.9</ele>
        <time>2018-10-24T15:00:46Z</time>
      </trkpt>
      <trkpt lat="42.818924" lon="0.236823">
        <ele>2535.6</ele>
        <time>2018-10-24T15:01:02Z</time>
      </trkpt>
      <trkpt lat="42.818952" lon="0.236712">
        <ele>2534.1</ele>
        <time>2018-10-24T15:01:16Z</time>
      </trkpt>
      <trkpt lat="42.818961" lon="0.236594">
        <ele>2533.4</ele>
        <time>2018-10-24T15:01:57Z</time>
      </trkpt>
      <trkpt lat="42.818992" lon="0.236452">
        <ele>2532.3</ele>
        <time>2018-10-24T15:02:23Z</time>
      </trkpt>
      <trkpt lat="42.819027" lon="0.236329">
        <ele>2529.2</ele>
        <time>2018-10-24T15:02:47Z</time>
      </trkpt>
      <trkpt lat="42.819046" lon="0.236200">
        <ele>2527.1</ele>
        <time>2018-10-24T15:03:08Z</time>
      </trkpt>
      <trkpt lat="42.819092" lon="0.236086">
        <ele>2525.0</ele>
        <time>2018-10-24T15:03:21Z</time>
      </trkpt>
      <trkpt lat="42.819128" lon="0.235978">
        <ele>2524.4</ele>
        <time>2018-10-24T15:03:39Z</time>
      </trkpt>
      <trkpt lat="42.819164" lon="0.235875">
        <ele>2522.8</ele>
        <time>2018-10-24T15:03:54Z</time>
      </trkpt>
      <trkpt lat="42.819179" lon="0.235760">
        <ele>2520.0</ele>
        <time>2018-10-24T15:04:12Z</time>
      </trkpt>
      <trkpt lat="42.819236" lon="0.235649">
        <ele>2516.5</ele>
        <time>2018-10-24T15:04:31Z</time>
      </trkpt>
      <trkpt lat="42.819308" lon="0.235579">
        <ele>2515.5</ele>
        <time>2018-10-24T15:04:49Z</time>
      </trkpt>
      <trkpt lat="42.819340" lon="0.235464">
        <ele>2517.7</ele>
        <time>2018-10-24T15:05:09Z</time>
      </trkpt>
      <trkpt lat="42.819336" lon="0.235417">
        <ele>2515.0</ele>
        <time>2018-10-24T15:05:35Z</time>
      </trkpt>
      <trkpt lat="42.819327" lon="0.235342">
        <ele>2510.5</ele>
        <time>2018-10-24T15:06:06Z</time>
      </trkpt>
      <trkpt lat="42.819310" lon="0.235274">
        <ele>2502.2</ele>
        <time>2018-10-24T15:07:50Z</time>
      </trkpt>
      <trkpt lat="42.819263" lon="0.235272">
        <ele>2499.3</ele>
        <time>2018-10-24T15:08:30Z</time>
      </trkpt>
      <trkpt lat="42.819273" lon="0.235153">
        <ele>2496.2</ele>
        <time>2018-10-24T15:08:51Z</time>
      </trkpt>
      <trkpt lat="42.819305" lon="0.235036">
        <ele>2491.8</ele>
        <time>2018-10-24T15:09:17Z</time>
      </trkpt>
      <trkpt lat="42.819363" lon="0.234961">
        <ele>2488.4</ele>
        <time>2018-10-24T15:09:45Z</time>
      </trkpt>
      <trkpt lat="42.819419" lon="0.234863">
        <ele>2487.1</ele>
        <time>2018-10-24T15:10:11Z</time>
      </trkpt>
      <trkpt lat="42.819484" lon="0.234813">
        <ele>2488.4</ele>
        <time>2018-10-24T15:10:36Z</time>
      </trkpt>
      <trkpt lat="42.819521" lon="0.234704">
        <ele>2488.5</ele>
        <time>2018-10-24T15:11:00Z</time>
      </trkpt>
      <trkpt lat="42.819550" lon="0.234587">
        <ele>2487.4</ele>
        <time>2018-10-24T15:11:22Z</time>
      </trkpt>
      <trkpt lat="42.819575" lon="0.234513">
        <ele>2493.5</ele>
        <time>2018-10-24T15:12:24Z</time>
      </trkpt>
      <trkpt lat="42.819615" lon="0.234413">
        <ele>2495.0</ele>
        <time>2018-10-24T15:13:02Z</time>
      </trkpt>
      <trkpt lat="42.819685" lon="0.234325">
        <ele>2494.6</ele>
        <time>2018-10-24T15:13:24Z</time>
      </trkpt>
      <trkpt lat="42.819759" lon="0.234266">
        <ele>2492.2</ele>
        <time>2018-10-24T15:13:49Z</time>
      </trkpt>
      <trkpt lat="42.819831" lon="0.234208">
        <ele>2494.5</ele>
        <time>2018-10-24T15:14:14Z</time>
      </trkpt>
      <trkpt lat="42.819904" lon="0.234148">
        <ele>2491.7</ele>
        <time>2018-10-24T15:14:30Z</time>
      </trkpt>
      <trkpt lat="42.819954" lon="0.234056">
        <ele>2488.4</ele>
        <time>2018-10-24T15:14:46Z</time>
      </trkpt>
      <trkpt lat="42.819979" lon="0.233933">
        <ele>2485.9</ele>
        <time>2018-10-24T15:15:07Z</time>
      </trkpt>
      <trkpt lat="42.819971" lon="0.233825">
        <ele>2488.7</ele>
        <time>2018-10-24T15:16:15Z</time>
      </trkpt>
      <trkpt lat="42.820045" lon="0.233770">
        <ele>2488.6</ele>
        <time>2018-10-24T15:16:36Z</time>
      </trkpt>
      <trkpt lat="42.820119" lon="0.233697">
        <ele>2485.9</ele>
        <time>2018-10-24T15:16:51Z</time>
      </trkpt>
      <trkpt lat="42.820153" lon="0.233587">
        <ele>2483.1</ele>
        <time>2018-10-24T15:17:14Z</time>
      </trkpt>
      <trkpt lat="42.820222" lon="0.233562">
        <ele>2486.7</ele>
        <time>2018-10-24T15:17:37Z</time>
      </trkpt>
      <trkpt lat="42.820256" lon="0.233510">
        <ele>2493.1</ele>
        <time>2018-10-24T15:18:16Z</time>
      </trkpt>
      <trkpt lat="42.820317" lon="0.233441">
        <ele>2496.4</ele>
        <time>2018-10-24T15:18:45Z</time>
      </trkpt>
      <trkpt lat="42.820375" lon="0.233411">
        <ele>2499.5</ele>
        <time>2018-10-24T15:19:08Z</time>
      </trkpt>
      <trkpt lat="42.820410" lon="0.233367">
        <ele>2504.9</ele>
        <time>2018-10-24T15:19:48Z</time>
      </trkpt>
      <trkpt lat="42.820449" lon="0.233304">
        <ele>2510.2</ele>
        <time>2018-10-24T15:20:23Z</time>
      </trkpt>
      <trkpt lat="42.820507" lon="0.233255">
        <ele>2512.9</ele>
        <time>2018-10-24T15:20:45Z</time>
      </trkpt>
      <trkpt lat="42.820588" lon="0.233201">
        <ele>2515.7</ele>
        <time>2018-10-24T15:21:07Z</time>
      </trkpt>
      <trkpt lat="42.820685" lon="0.233150">
        <ele>2514.1</ele>
        <time>2018-10-24T15:21:30Z</time>
      </trkpt>
      <trkpt lat="42.820788" lon="0.233130">
        <ele>2515.9</ele>
        <time>2018-10-24T15:21:49Z</time>
      </trkpt>
      <trkpt lat="42.820830" lon="0.233106">
        <ele>2519.1</ele>
        <time>2018-10-24T15:23:42Z</time>
      </trkpt>
      <trkpt lat="42.820884" lon="0.233005">
        <ele>2518.5</ele>
        <time>2018-10-24T15:24:00Z</time>
      </trkpt>
      <trkpt lat="42.820936" lon="0.232878">
        <ele>2518.7</ele>
        <time>2018-10-24T15:24:14Z</time>
      </trkpt>
      <trkpt lat="42.820965" lon="0.232772">
        <ele>2518.9</ele>
        <time>2018-10-24T15:24:28Z</time>
      </trkpt>
      <trkpt lat="42.820962" lon="0.232638">
        <ele>2520.0</ele>
        <time>2018-10-24T15:24:44Z</time>
      </trkpt>
      <trkpt lat="42.820969" lon="0.232518">
        <ele>2519.8</ele>
        <time>2018-10-24T15:25:04Z</time>
      </trkpt>
      <trkpt lat="42.820979" lon="0.232393">
        <ele>2522.4</ele>
        <time>2018-10-24T15:25:24Z</time>
      </trkpt>
      <trkpt lat="42.820975" lon="0.232365">
        <ele>2526.7</ele>
        <time>2018-10-24T15:43:06Z</time>
      </trkpt>
      <trkpt lat="42.821018" lon="0.232242">
        <ele>2526.3</ele>
        <time>2018-10-24T15:43:38Z</time>
        <name>Pic Cabanou</name>
      </trkpt>
      <trkpt lat="42.821043" lon="0.232123">
        <ele>2524.0</ele>
        <time>2018-10-24T15:43:52Z</time>
      </trkpt>
      <trkpt lat="42.821086" lon="0.232006">
        <ele>2519.8</ele>
        <time>2018-10-24T15:44:07Z</time>
      </trkpt>
      <trkpt lat="42.821122" lon="0.231889">
        <ele>2515.9</ele>
        <time>2018-10-24T15:44:22Z</time>
      </trkpt>
      <trkpt lat="42.821185" lon="0.231804">
        <ele>2510.9</ele>
        <time>2018-10-24T15:44:41Z</time>
      </trkpt>
      <trkpt lat="42.821273" lon="0.231729">
        <ele>2506.8</ele>
        <time>2018-10-24T15:44:59Z</time>
      </trkpt>
      <trkpt lat="42.821344" lon="0.231731">
        <ele>2503.6</ele>
        <time>2018-10-24T15:45:14Z</time>
      </trkpt>
      <trkpt lat="42.821406" lon="0.231662">
        <ele>2498.1</ele>
        <time>2018-10-24T15:45:35Z</time>
      </trkpt>
      <trkpt lat="42.821497" lon="0.231681">
        <ele>2491.7</ele>
        <time>2018-10-24T15:46:13Z</time>
      </trkpt>
      <trkpt lat="42.821549" lon="0.231725">
        <ele>2487.4</ele>
        <time>2018-10-24T15:46:33Z</time>
      </trkpt>
      <trkpt lat="42.821630" lon="0.231668">
        <ele>2481.9</ele>
        <time>2018-10-24T15:46:54Z</time>
      </trkpt>
      <trkpt lat="42.821700" lon="0.231590">
        <ele>2477.6</ele>
        <time>2018-10-24T15:47:13Z</time>
      </trkpt>
      <trkpt lat="42.821760" lon="0.231535">
        <ele>2473.6</ele>
        <time>2018-10-24T15:47:32Z</time>
      </trkpt>
      <trkpt lat="42.821812" lon="0.231418">
        <ele>2469.7</ele>
        <time>2018-10-24T15:47:49Z</time>
      </trkpt>
      <trkpt lat="42.821862" lon="0.231299">
        <ele>2465.7</ele>
        <time>2018-10-24T15:48:06Z</time>
      </trkpt>
      <trkpt lat="42.821927" lon="0.231299">
        <ele>2462.4</ele>
        <time>2018-10-24T15:48:21Z</time>
      </trkpt>
      <trkpt lat="42.821995" lon="0.231337">
        <ele>2459.3</ele>
        <time>2018-10-24T15:49:05Z</time>
      </trkpt>
      <trkpt lat="42.822088" lon="0.231313">
        <ele>2453.2</ele>
        <time>2018-10-24T15:49:21Z</time>
      </trkpt>
      <trkpt lat="42.822177" lon="0.231277">
        <ele>2446.3</ele>
        <time>2018-10-24T15:49:37Z</time>
      </trkpt>
      <trkpt lat="42.822270" lon="0.231258">
        <ele>2440.9</ele>
        <time>2018-10-24T15:49:57Z</time>
      </trkpt>
      <trkpt lat="42.822323" lon="0.231345">
        <ele>2436.3</ele>
        <time>2018-10-24T15:50:12Z</time>
      </trkpt>
      <trkpt lat="42.822374" lon="0.231395">
        <ele>2432.3</ele>
        <time>2018-10-24T15:50:28Z</time>
      </trkpt>
      <trkpt lat="42.822442" lon="0.231396">
        <ele>2426.2</ele>
        <time>2018-10-24T15:50:49Z</time>
      </trkpt>
      <trkpt lat="42.822504" lon="0.231449">
        <ele>2421.2</ele>
        <time>2018-10-24T15:51:11Z</time>
      </trkpt>
      <trkpt lat="42.822569" lon="0.231517">
        <ele>2418.0</ele>
        <time>2018-10-24T15:51:28Z</time>
      </trkpt>
      <trkpt lat="42.822662" lon="0.231530">
        <ele>2413.4</ele>
        <time>2018-10-24T15:51:43Z</time>
      </trkpt>
      <trkpt lat="42.822740" lon="0.231540">
        <ele>2407.0</ele>
        <time>2018-10-24T15:52:05Z</time>
      </trkpt>
      <trkpt lat="42.822806" lon="0.231553">
        <ele>2403.2</ele>
        <time>2018-10-24T15:52:21Z</time>
      </trkpt>
      <trkpt lat="42.822857" lon="0.231617">
        <ele>2399.7</ele>
        <time>2018-10-24T15:52:35Z</time>
      </trkpt>
      <trkpt lat="42.822945" lon="0.231643">
        <ele>2394.7</ele>
        <time>2018-10-24T15:52:51Z</time>
      </trkpt>
      <trkpt lat="42.823009" lon="0.231639">
        <ele>2390.9</ele>
        <time>2018-10-24T15:53:40Z</time>
      </trkpt>
      <trkpt lat="42.823096" lon="0.231644">
        <ele>2388.6</ele>
        <time>2018-10-24T15:53:51Z</time>
      </trkpt>
      <trkpt lat="42.823186" lon="0.231619">
        <ele>2383.7</ele>
        <time>2018-10-24T15:54:03Z</time>
      </trkpt>
      <trkpt lat="42.823275" lon="0.231600">
        <ele>2379.8</ele>
        <time>2018-10-24T15:54:13Z</time>
      </trkpt>
      <trkpt lat="42.823372" lon="0.231597">
        <ele>2375.4</ele>
        <time>2018-10-24T15:54:23Z</time>
      </trkpt>
      <trkpt lat="42.823456" lon="0.231576">
        <ele>2371.3</ele>
        <time>2018-10-24T15:54:33Z</time>
      </trkpt>
      <trkpt lat="42.823525" lon="0.231561">
        <ele>2367.5</ele>
        <time>2018-10-24T15:54:42Z</time>
      </trkpt>
      <trkpt lat="42.823592" lon="0.231598">
        <ele>2362.4</ele>
        <time>2018-10-24T15:54:53Z</time>
      </trkpt>
      <trkpt lat="42.823646" lon="0.231697">
        <ele>2358.8</ele>
        <time>2018-10-24T15:55:02Z</time>
      </trkpt>
      <trkpt lat="42.823735" lon="0.231693">
        <ele>2353.7</ele>
        <time>2018-10-24T15:55:12Z</time>
      </trkpt>
      <trkpt lat="42.823810" lon="0.231760">
        <ele>2349.4</ele>
        <time>2018-10-24T15:55:24Z</time>
      </trkpt>
      <trkpt lat="42.823880" lon="0.231817">
        <ele>2346.4</ele>
        <time>2018-10-24T15:55:34Z</time>
      </trkpt>
      <trkpt lat="42.823948" lon="0.231875">
        <ele>2343.4</ele>
        <time>2018-10-24T15:55:45Z</time>
      </trkpt>
      <trkpt lat="42.823981" lon="0.231976">
        <ele>2339.9</ele>
        <time>2018-10-24T15:55:57Z</time>
      </trkpt>
      <trkpt lat="42.823982" lon="0.232067">
        <ele>2334.7</ele>
        <time>2018-10-24T15:56:09Z</time>
      </trkpt>
      <trkpt lat="42.824016" lon="0.232178">
        <ele>2329.8</ele>
        <time>2018-10-24T15:56:20Z</time>
      </trkpt>
      <trkpt lat="42.824026" lon="0.232312">
        <ele>2323.7</ele>
        <time>2018-10-24T15:56:32Z</time>
        <name>Col Terre Nere</name>
      </trkpt>
      <trkpt lat="42.824035" lon="0.232445">
        <ele>2318.1</ele>
        <time>2018-10-24T15:56:44Z</time>
      </trkpt>
      <trkpt lat="42.824051" lon="0.232570">
        <ele>2312.8</ele>
        <time>2018-10-24T15:56:54Z</time>
      </trkpt>
      <trkpt lat="42.824081" lon="0.232673">
        <ele>2308.8</ele>
        <time>2018-10-24T15:57:04Z</time>
      </trkpt>
      <trkpt lat="42.824092" lon="0.232800">
        <ele>2304.0</ele>
        <time>2018-10-24T15:57:14Z</time>
      </trkpt>
      <trkpt lat="42.824125" lon="0.232884">
        <ele>2299.4</ele>
        <time>2018-10-24T15:57:23Z</time>
      </trkpt>
      <trkpt lat="42.824157" lon="0.233000">
        <ele>2295.1</ele>
        <time>2018-10-24T15:57:33Z</time>
      </trkpt>
      <trkpt lat="42.824185" lon="0.233106">
        <ele>2291.0</ele>
        <time>2018-10-24T15:57:42Z</time>
      </trkpt>
      <trkpt lat="42.824174" lon="0.233233">
        <ele>2284.4</ele>
        <time>2018-10-24T15:57:56Z</time>
      </trkpt>
      <trkpt lat="42.824171" lon="0.233353">
        <ele>2279.5</ele>
        <time>2018-10-24T15:58:11Z</time>
      </trkpt>
      <trkpt lat="42.824231" lon="0.233449">
        <ele>2276.3</ele>
        <time>2018-10-24T15:58:24Z</time>
      </trkpt>
      <trkpt lat="42.824253" lon="0.233562">
        <ele>2273.3</ele>
        <time>2018-10-24T15:58:34Z</time>
      </trkpt>
      <trkpt lat="42.824287" lon="0.233672">
        <ele>2269.3</ele>
        <time>2018-10-24T15:58:47Z</time>
      </trkpt>
      <trkpt lat="42.824328" lon="0.233765">
        <ele>2266.2</ele>
        <time>2018-10-24T15:58:58Z</time>
      </trkpt>
      <trkpt lat="42.824370" lon="0.233877">
        <ele>2261.8</ele>
        <time>2018-10-24T15:59:11Z</time>
      </trkpt>
      <trkpt lat="42.824423" lon="0.233992">
        <ele>2258.1</ele>
        <time>2018-10-24T15:59:23Z</time>
      </trkpt>
      <trkpt lat="42.824480" lon="0.234119">
        <ele>2254.9</ele>
        <time>2018-10-24T15:59:33Z</time>
      </trkpt>
      <trkpt lat="42.824540" lon="0.234229">
        <ele>2252.6</ele>
        <time>2018-10-24T15:59:41Z</time>
      </trkpt>
      <trkpt lat="42.824595" lon="0.234341">
        <ele>2250.9</ele>
        <time>2018-10-24T15:59:49Z</time>
      </trkpt>
      <trkpt lat="42.824661" lon="0.234429">
        <ele>2249.6</ele>
        <time>2018-10-24T15:59:56Z</time>
      </trkpt>
      <trkpt lat="42.824720" lon="0.234537">
        <ele>2248.5</ele>
        <time>2018-10-24T16:00:03Z</time>
      </trkpt>
      <trkpt lat="42.824779" lon="0.234649">
        <ele>2247.8</ele>
        <time>2018-10-24T16:00:11Z</time>
      </trkpt>
      <trkpt lat="42.824830" lon="0.234747">
        <ele>2245.9</ele>
        <time>2018-10-24T16:00:30Z</time>
      </trkpt>
      <trkpt lat="42.824872" lon="0.234862">
        <ele>2243.8</ele>
        <time>2018-10-24T16:00:42Z</time>
      </trkpt>
      <trkpt lat="42.824871" lon="0.234999">
        <ele>2241.2</ele>
        <time>2018-10-24T16:00:53Z</time>
      </trkpt>
      <trkpt lat="42.824843" lon="0.235113">
        <ele>2238.4</ele>
        <time>2018-10-24T16:01:04Z</time>
      </trkpt>
      <trkpt lat="42.824836" lon="0.235237">
        <ele>2234.9</ele>
        <time>2018-10-24T16:01:15Z</time>
      </trkpt>
      <trkpt lat="42.824847" lon="0.235360">
        <ele>2231.6</ele>
        <time>2018-10-24T16:01:25Z</time>
      </trkpt>
      <trkpt lat="42.824825" lon="0.235482">
        <ele>2228.5</ele>
        <time>2018-10-24T16:01:34Z</time>
      </trkpt>
      <trkpt lat="42.824788" lon="0.235597">
        <ele>2224.9</ele>
        <time>2018-10-24T16:01:43Z</time>
      </trkpt>
      <trkpt lat="42.824781" lon="0.235730">
        <ele>2221.3</ele>
        <time>2018-10-24T16:01:53Z</time>
      </trkpt>
      <trkpt lat="42.824764" lon="0.235859">
        <ele>2217.9</ele>
        <time>2018-10-24T16:02:03Z</time>
      </trkpt>
      <trkpt lat="42.824740" lon="0.235979">
        <ele>2213.6</ele>
        <time>2018-10-24T16:02:13Z</time>
      </trkpt>
      <trkpt lat="42.824731" lon="0.236106">
        <ele>2209.8</ele>
        <time>2018-10-24T16:02:22Z</time>
      </trkpt>
      <trkpt lat="42.824714" lon="0.236231">
        <ele>2205.3</ele>
        <time>2018-10-24T16:02:33Z</time>
      </trkpt>
      <trkpt lat="42.824679" lon="0.236337">
        <ele>2201.9</ele>
        <time>2018-10-24T16:02:43Z</time>
      </trkpt>
      <trkpt lat="42.824634" lon="0.236446">
        <ele>2198.1</ele>
        <time>2018-10-24T16:02:53Z</time>
      </trkpt>
      <trkpt lat="42.824603" lon="0.236567">
        <ele>2194.3</ele>
        <time>2018-10-24T16:03:04Z</time>
      </trkpt>
      <trkpt lat="42.824583" lon="0.236677">
        <ele>2191.3</ele>
        <time>2018-10-24T16:03:13Z</time>
      </trkpt>
      <trkpt lat="42.824593" lon="0.236805">
        <ele>2187.7</ele>
        <time>2018-10-24T16:03:23Z</time>
      </trkpt>
      <trkpt lat="42.824606" lon="0.236919">
        <ele>2185.4</ele>
        <time>2018-10-24T16:03:31Z</time>
      </trkpt>
      <trkpt lat="42.824579" lon="0.237034">
        <ele>2182.1</ele>
        <time>2018-10-24T16:03:41Z</time>
      </trkpt>
      <trkpt lat="42.824539" lon="0.237152">
        <ele>2178.6</ele>
        <time>2018-10-24T16:03:52Z</time>
      </trkpt>
      <trkpt lat="42.824473" lon="0.237249">
        <ele>2175.2</ele>
        <time>2018-10-24T16:04:08Z</time>
      </trkpt>
      <trkpt lat="42.824499" lon="0.238018">
        <ele>2150.5</ele>
        <time>2018-10-24T16:05:53Z</time>
      </trkpt>
      <trkpt lat="42.824496" lon="0.238088">
        <ele>2146.1</ele>
        <time>2018-10-24T16:06:56Z</time>
      </trkpt>
      <trkpt lat="42.824533" lon="0.238200">
        <ele>2143.5</ele>
        <time>2018-10-24T16:07:09Z</time>
      </trkpt>
      <trkpt lat="42.824559" lon="0.238309">
        <ele>2139.5</ele>
        <time>2018-10-24T16:07:22Z</time>
      </trkpt>
      <trkpt lat="42.824550" lon="0.238416">
        <ele>2135.4</ele>
        <time>2018-10-24T16:07:37Z</time>
      </trkpt>
      <trkpt lat="42.824551" lon="0.238519">
        <ele>2130.6</ele>
        <time>2018-10-24T16:07:54Z</time>
      </trkpt>
      <trkpt lat="42.824559" lon="0.238632">
        <ele>2125.3</ele>
        <time>2018-10-24T16:08:14Z</time>
      </trkpt>
      <trkpt lat="42.824572" lon="0.238757">
        <ele>2120.8</ele>
        <time>2018-10-24T16:08:30Z</time>
      </trkpt>
      <trkpt lat="42.824589" lon="0.238882">
        <ele>2116.0</ele>
        <time>2018-10-24T16:08:48Z</time>
      </trkpt>
      <trkpt lat="42.824605" lon="0.239001">
        <ele>2110.8</ele>
        <time>2018-10-24T16:09:05Z</time>
      </trkpt>
      <trkpt lat="42.824613" lon="0.239132">
        <ele>2105.2</ele>
        <time>2018-10-24T16:09:26Z</time>
      </trkpt>
      <trkpt lat="42.824618" lon="0.239259">
        <ele>2100.6</ele>
        <time>2018-10-24T16:09:42Z</time>
      </trkpt>
      <trkpt lat="42.824624" lon="0.239381">
        <ele>2096.7</ele>
        <time>2018-10-24T16:09:55Z</time>
      </trkpt>
      <trkpt lat="42.824634" lon="0.239499">
        <ele>2092.9</ele>
        <time>2018-10-24T16:10:07Z</time>
      </trkpt>
      <trkpt lat="42.824700" lon="0.239609">
        <ele>2087.5</ele>
        <time>2018-10-24T16:10:22Z</time>
      </trkpt>
      <trkpt lat="42.824742" lon="0.239721">
        <ele>2082.9</ele>
        <time>2018-10-24T16:10:34Z</time>
      </trkpt>
      <trkpt lat="42.824769" lon="0.239851">
        <ele>2078.4</ele>
        <time>2018-10-24T16:10:45Z</time>
      </trkpt>
      <trkpt lat="42.824807" lon="0.239958">
        <ele>2074.1</ele>
        <time>2018-10-24T16:10:55Z</time>
      </trkpt>
      <trkpt lat="42.824866" lon="0.240049">
        <ele>2069.4</ele>
        <time>2018-10-24T16:11:06Z</time>
      </trkpt>
      <trkpt lat="42.824895" lon="0.240177">
        <ele>2064.9</ele>
        <time>2018-10-24T16:11:16Z</time>
      </trkpt>
      <trkpt lat="42.824926" lon="0.240295">
        <ele>2061.6</ele>
        <time>2018-10-24T16:11:25Z</time>
      </trkpt>
      <trkpt lat="42.824915" lon="0.240407">
        <ele>2057.8</ele>
        <time>2018-10-24T16:11:33Z</time>
      </trkpt>
      <trkpt lat="42.824906" lon="0.240534">
        <ele>2054.3</ele>
        <time>2018-10-24T16:11:43Z</time>
      </trkpt>
      <trkpt lat="42.824926" lon="0.240690">
        <ele>2049.5</ele>
        <time>2018-10-24T16:11:55Z</time>
      </trkpt>
      <trkpt lat="42.824949" lon="0.240826">
        <ele>2046.1</ele>
        <time>2018-10-24T16:12:05Z</time>
      </trkpt>
      <trkpt lat="42.824913" lon="0.240953">
        <ele>2042.7</ele>
        <time>2018-10-24T16:12:15Z</time>
      </trkpt>
      <trkpt lat="42.824893" lon="0.241092">
        <ele>2040.0</ele>
        <time>2018-10-24T16:12:24Z</time>
      </trkpt>
      <trkpt lat="42.824916" lon="0.241232">
        <ele>2037.8</ele>
        <time>2018-10-24T16:12:32Z</time>
      </trkpt>
      <trkpt lat="42.824914" lon="0.241361">
        <ele>2035.6</ele>
        <time>2018-10-24T16:12:40Z</time>
      </trkpt>
      <trkpt lat="42.824876" lon="0.241494">
        <ele>2033.0</ele>
        <time>2018-10-24T16:12:48Z</time>
      </trkpt>
      <trkpt lat="42.824875" lon="0.241620">
        <ele>2030.3</ele>
        <time>2018-10-24T16:12:56Z</time>
      </trkpt>
      <trkpt lat="42.824848" lon="0.241736">
        <ele>2028.3</ele>
        <time>2018-10-24T16:13:04Z</time>
      </trkpt>
      <trkpt lat="42.824859" lon="0.241896">
        <ele>2026.1</ele>
        <time>2018-10-24T16:13:12Z</time>
      </trkpt>
      <trkpt lat="42.824831" lon="0.242029">
        <ele>2023.3</ele>
        <time>2018-10-24T16:13:20Z</time>
      </trkpt>
      <trkpt lat="42.824846" lon="0.242172">
        <ele>2021.0</ele>
        <time>2018-10-24T16:13:28Z</time>
      </trkpt>
      <trkpt lat="42.824844" lon="0.242312">
        <ele>2019.2</ele>
        <time>2018-10-24T16:13:35Z</time>
      </trkpt>
      <trkpt lat="42.824846" lon="0.242439">
        <ele>2016.8</ele>
        <time>2018-10-24T16:13:43Z</time>
      </trkpt>
      <trkpt lat="42.824847" lon="0.242559">
        <ele>2014.7</ele>
        <time>2018-10-24T16:13:51Z</time>
      </trkpt>
      <trkpt lat="42.824844" lon="0.242694">
        <ele>2011.6</ele>
        <time>2018-10-24T16:14:00Z</time>
      </trkpt>
      <trkpt lat="42.824861" lon="0.242823">
        <ele>2007.8</ele>
        <time>2018-10-24T16:14:09Z</time>
      </trkpt>
      <trkpt lat="42.824864" lon="0.242948">
        <ele>2003.7</ele>
        <time>2018-10-24T16:14:19Z</time>
      </trkpt>
      <trkpt lat="42.824860" lon="0.243060">
        <ele>1999.7</ele>
        <time>2018-10-24T16:14:28Z</time>
      </trkpt>
      <trkpt lat="42.824838" lon="0.243180">
        <ele>1995.5</ele>
        <time>2018-10-24T16:14:37Z</time>
      </trkpt>
      <trkpt lat="42.824818" lon="0.243325">
        <ele>1991.3</ele>
        <time>2018-10-24T16:14:46Z</time>
      </trkpt>
      <trkpt lat="42.824813" lon="0.243448">
        <ele>1987.6</ele>
        <time>2018-10-24T16:14:54Z</time>
      </trkpt>
      <trkpt lat="42.824792" lon="0.243572">
        <ele>1983.6</ele>
        <time>2018-10-24T16:15:02Z</time>
      </trkpt>
      <trkpt lat="42.824817" lon="0.243697">
        <ele>1979.4</ele>
        <time>2018-10-24T16:15:12Z</time>
      </trkpt>
      <trkpt lat="42.824820" lon="0.243811">
        <ele>1975.3</ele>
        <time>2018-10-24T16:15:21Z</time>
      </trkpt>
      <trkpt lat="42.824839" lon="0.243947">
        <ele>1970.9</ele>
        <time>2018-10-24T16:15:30Z</time>
      </trkpt>
      <trkpt lat="42.824843" lon="0.244075">
        <ele>1966.9</ele>
        <time>2018-10-24T16:15:39Z</time>
      </trkpt>
      <trkpt lat="42.824836" lon="0.244197">
        <ele>1963.2</ele>
        <time>2018-10-24T16:15:47Z</time>
      </trkpt>
      <trkpt lat="42.824835" lon="0.244318">
        <ele>1959.2</ele>
        <time>2018-10-24T16:15:55Z</time>
      </trkpt>
      <trkpt lat="42.824833" lon="0.244448">
        <ele>1955.4</ele>
        <time>2018-10-24T16:16:03Z</time>
      </trkpt>
      <trkpt lat="42.824820" lon="0.244585">
        <ele>1951.7</ele>
        <time>2018-10-24T16:16:11Z</time>
      </trkpt>
      <trkpt lat="42.824822" lon="0.244714">
        <ele>1947.9</ele>
        <time>2018-10-24T16:16:19Z</time>
      </trkpt>
      <trkpt lat="42.824841" lon="0.244844">
        <ele>1944.9</ele>
        <time>2018-10-24T16:16:27Z</time>
      </trkpt>
      <trkpt lat="42.824852" lon="0.244970">
        <ele>1942.2</ele>
        <time>2018-10-24T16:16:35Z</time>
      </trkpt>
      <trkpt lat="42.824865" lon="0.245095">
        <ele>1939.4</ele>
        <time>2018-10-24T16:16:42Z</time>
      </trkpt>
      <trkpt lat="42.824889" lon="0.245231">
        <ele>1935.6</ele>
        <time>2018-10-24T16:16:50Z</time>
      </trkpt>
      <trkpt lat="42.824933" lon="0.245344">
        <ele>1932.7</ele>
        <time>2018-10-24T16:16:57Z</time>
      </trkpt>
      <trkpt lat="42.824963" lon="0.245473">
        <ele>1929.7</ele>
        <time>2018-10-24T16:17:04Z</time>
      </trkpt>
      <trkpt lat="42.824982" lon="0.245601">
        <ele>1925.9</ele>
        <time>2018-10-24T16:17:11Z</time>
      </trkpt>
      <trkpt lat="42.825020" lon="0.245722">
        <ele>1922.4</ele>
        <time>2018-10-24T16:17:18Z</time>
      </trkpt>
      <trkpt lat="42.825059" lon="0.245853">
        <ele>1919.0</ele>
        <time>2018-10-24T16:17:25Z</time>
      </trkpt>
      <trkpt lat="42.825095" lon="0.245971">
        <ele>1915.9</ele>
        <time>2018-10-24T16:17:31Z</time>
      </trkpt>
      <trkpt lat="42.825126" lon="0.246098">
        <ele>1912.4</ele>
        <time>2018-10-24T16:17:37Z</time>
      </trkpt>
      <trkpt lat="42.825150" lon="0.246224">
        <ele>1909.4</ele>
        <time>2018-10-24T16:17:43Z</time>
      </trkpt>
      <trkpt lat="42.825174" lon="0.246348">
        <ele>1906.6</ele>
        <time>2018-10-24T16:17:49Z</time>
      </trkpt>
      <trkpt lat="42.825192" lon="0.246473">
        <ele>1903.8</ele>
        <time>2018-10-24T16:17:56Z</time>
      </trkpt>
      <trkpt lat="42.825215" lon="0.246599">
        <ele>1901.0</ele>
        <time>2018-10-24T16:18:03Z</time>
      </trkpt>
      <trkpt lat="42.825223" lon="0.246726">
        <ele>1898.8</ele>
        <time>2018-10-24T16:18:10Z</time>
      </trkpt>
      <trkpt lat="42.825241" lon="0.246859">
        <ele>1896.3</ele>
        <time>2018-10-24T16:18:18Z</time>
      </trkpt>
      <trkpt lat="42.825287" lon="0.246985">
        <ele>1893.7</ele>
        <time>2018-10-24T16:18:26Z</time>
      </trkpt>
      <trkpt lat="42.825319" lon="0.247127">
        <ele>1891.2</ele>
        <time>2018-10-24T16:18:34Z</time>
      </trkpt>
      <trkpt lat="42.825353" lon="0.247243">
        <ele>1888.4</ele>
        <time>2018-10-24T16:18:41Z</time>
      </trkpt>
      <trkpt lat="42.825388" lon="0.247367">
        <ele>1885.3</ele>
        <time>2018-10-24T16:18:50Z</time>
      </trkpt>
      <trkpt lat="42.825409" lon="0.247473">
        <ele>1882.3</ele>
        <time>2018-10-24T16:18:57Z</time>
      </trkpt>
      <trkpt lat="42.825414" lon="0.247609">
        <ele>1879.2</ele>
        <time>2018-10-24T16:19:05Z</time>
      </trkpt>
      <trkpt lat="42.825459" lon="0.247725">
        <ele>1876.4</ele>
        <time>2018-10-24T16:19:12Z</time>
      </trkpt>
      <trkpt lat="42.825499" lon="0.247833">
        <ele>1873.4</ele>
        <time>2018-10-24T16:19:21Z</time>
      </trkpt>
      <trkpt lat="42.825546" lon="0.247945">
        <ele>1871.6</ele>
        <time>2018-10-24T16:19:30Z</time>
      </trkpt>
      <trkpt lat="42.825620" lon="0.248065">
        <ele>1869.4</ele>
        <time>2018-10-24T16:19:39Z</time>
      </trkpt>
      <trkpt lat="42.825674" lon="0.248181">
        <ele>1866.9</ele>
        <time>2018-10-24T16:19:47Z</time>
      </trkpt>
      <trkpt lat="42.825724" lon="0.248283">
        <ele>1865.0</ele>
        <time>2018-10-24T16:19:54Z</time>
      </trkpt>
      <trkpt lat="42.825771" lon="0.248388">
        <ele>1862.6</ele>
        <time>2018-10-24T16:20:02Z</time>
      </trkpt>
      <trkpt lat="42.825806" lon="0.248506">
        <ele>1859.7</ele>
        <time>2018-10-24T16:20:11Z</time>
      </trkpt>
      <trkpt lat="42.825817" lon="0.248641">
        <ele>1857.6</ele>
        <time>2018-10-24T16:20:25Z</time>
      </trkpt>
      <trkpt lat="42.825815" lon="0.248802">
        <ele>1854.5</ele>
        <time>2018-10-24T16:20:36Z</time>
      </trkpt>
      <trkpt lat="42.825874" lon="0.248899">
        <ele>1852.2</ele>
        <time>2018-10-24T16:20:45Z</time>
      </trkpt>
      <trkpt lat="42.825934" lon="0.249016">
        <ele>1848.6</ele>
        <time>2018-10-24T16:20:56Z</time>
      </trkpt>
      <trkpt lat="42.825983" lon="0.249118">
        <ele>1845.5</ele>
        <time>2018-10-24T16:21:05Z</time>
      </trkpt>
      <trkpt lat="42.826018" lon="0.249216">
        <ele>1842.4</ele>
        <time>2018-10-24T16:21:13Z</time>
      </trkpt>
      <trkpt lat="42.826036" lon="0.249324">
        <ele>1837.1</ele>
        <time>2018-10-24T16:21:25Z</time>
      </trkpt>
      <trkpt lat="42.826033" lon="0.249442">
        <ele>1832.5</ele>
        <time>2018-10-24T16:21:38Z</time>
      </trkpt>
      <trkpt lat="42.826073" lon="0.249558">
        <ele>1828.1</ele>
        <time>2018-10-24T16:21:51Z</time>
      </trkpt>
      <trkpt lat="42.826075" lon="0.249685">
        <ele>1824.3</ele>
        <time>2018-10-24T16:22:03Z</time>
      </trkpt>
      <trkpt lat="42.826074" lon="0.249796">
        <ele>1820.7</ele>
        <time>2018-10-24T16:22:15Z</time>
      </trkpt>
      <trkpt lat="42.826101" lon="0.249906">
        <ele>1816.9</ele>
        <time>2018-10-24T16:22:32Z</time>
      </trkpt>
      <trkpt lat="42.826133" lon="0.250019">
        <ele>1814.7</ele>
        <time>2018-10-24T16:22:42Z</time>
      </trkpt>
      <trkpt lat="42.826143" lon="0.250139">
        <ele>1811.3</ele>
        <time>2018-10-24T16:22:52Z</time>
      </trkpt>
      <trkpt lat="42.826168" lon="0.250262">
        <ele>1807.2</ele>
        <time>2018-10-24T16:23:04Z</time>
      </trkpt>
      <trkpt lat="42.826209" lon="0.250381">
        <ele>1803.9</ele>
        <time>2018-10-24T16:23:15Z</time>
      </trkpt>
      <trkpt lat="42.826251" lon="0.250488">
        <ele>1800.9</ele>
        <time>2018-10-24T16:23:25Z</time>
      </trkpt>
      <trkpt lat="42.826306" lon="0.250596">
        <ele>1797.5</ele>
        <time>2018-10-24T16:23:34Z</time>
      </trkpt>
      <trkpt lat="42.826374" lon="0.250690">
        <ele>1794.3</ele>
        <time>2018-10-24T16:23:44Z</time>
      </trkpt>
      <trkpt lat="42.826439" lon="0.250798">
        <ele>1791.3</ele>
        <time>2018-10-24T16:23:53Z</time>
      </trkpt>
      <trkpt lat="42.826494" lon="0.250901">
        <ele>1788.6</ele>
        <time>2018-10-24T16:24:02Z</time>
      </trkpt>
      <trkpt lat="42.826536" lon="0.251012">
        <ele>1785.2</ele>
        <time>2018-10-24T16:24:12Z</time>
      </trkpt>
      <trkpt lat="42.826583" lon="0.251120">
        <ele>1780.8</ele>
        <time>2018-10-24T16:24:23Z</time>
      </trkpt>
      <trkpt lat="42.826630" lon="0.251238">
        <ele>1776.6</ele>
        <time>2018-10-24T16:24:35Z</time>
      </trkpt>
      <trkpt lat="42.826683" lon="0.251349">
        <ele>1773.2</ele>
        <time>2018-10-24T16:24:44Z</time>
      </trkpt>
      <trkpt lat="42.826730" lon="0.251459">
        <ele>1769.8</ele>
        <time>2018-10-24T16:24:53Z</time>
      </trkpt>
      <trkpt lat="42.826780" lon="0.251557">
        <ele>1766.8</ele>
        <time>2018-10-24T16:25:02Z</time>
      </trkpt>
      <trkpt lat="42.826846" lon="0.251635">
        <ele>1763.4</ele>
        <time>2018-10-24T16:25:11Z</time>
      </trkpt>
      <trkpt lat="42.826915" lon="0.251728">
        <ele>1760.0</ele>
        <time>2018-10-24T16:25:21Z</time>
      </trkpt>
      <trkpt lat="42.826969" lon="0.251833">
        <ele>1755.4</ele>
        <time>2018-10-24T16:25:35Z</time>
      </trkpt>
      <trkpt lat="42.827040" lon="0.251935">
        <ele>1751.4</ele>
        <time>2018-10-24T16:25:48Z</time>
      </trkpt>
      <trkpt lat="42.827102" lon="0.252030">
        <ele>1746.6</ele>
        <time>2018-10-24T16:26:02Z</time>
      </trkpt>
      <trkpt lat="42.827173" lon="0.252132">
        <ele>1743.1</ele>
        <time>2018-10-24T16:26:14Z</time>
      </trkpt>
      <trkpt lat="42.827246" lon="0.252217">
        <ele>1738.8</ele>
        <time>2018-10-24T16:26:26Z</time>
      </trkpt>
      <trkpt lat="42.827300" lon="0.252299">
        <ele>1734.9</ele>
        <time>2018-10-24T16:26:38Z</time>
      </trkpt>
      <trkpt lat="42.827346" lon="0.252414">
        <ele>1731.4</ele>
        <time>2018-10-24T16:26:49Z</time>
      </trkpt>
      <trkpt lat="42.827401" lon="0.252518">
        <ele>1728.1</ele>
        <time>2018-10-24T16:27:00Z</time>
      </trkpt>
      <trkpt lat="42.827448" lon="0.252626">
        <ele>1724.7</ele>
        <time>2018-10-24T16:27:11Z</time>
      </trkpt>
      <trkpt lat="42.827503" lon="0.252732">
        <ele>1720.6</ele>
        <time>2018-10-24T16:27:22Z</time>
      </trkpt>
      <trkpt lat="42.827543" lon="0.252849">
        <ele>1715.9</ele>
        <time>2018-10-24T16:27:34Z</time>
      </trkpt>
      <trkpt lat="42.827553" lon="0.252973">
        <ele>1712.4</ele>
        <time>2018-10-24T16:27:44Z</time>
      </trkpt>
      <trkpt lat="42.827565" lon="0.253110">
        <ele>1709.0</ele>
        <time>2018-10-24T16:27:53Z</time>
      </trkpt>
      <trkpt lat="42.827528" lon="0.253235">
        <ele>1705.3</ele>
        <time>2018-10-24T16:28:03Z</time>
      </trkpt>
      <trkpt lat="42.827471" lon="0.253341">
        <ele>1701.7</ele>
        <time>2018-10-24T16:28:12Z</time>
      </trkpt>
      <trkpt lat="42.827395" lon="0.253424">
        <ele>1698.1</ele>
        <time>2018-10-24T16:28:22Z</time>
      </trkpt>
      <trkpt lat="42.827320" lon="0.253527">
        <ele>1694.5</ele>
        <time>2018-10-24T16:28:31Z</time>
      </trkpt>
      <trkpt lat="42.827245" lon="0.253616">
        <ele>1691.5</ele>
        <time>2018-10-24T16:28:40Z</time>
      </trkpt>
      <trkpt lat="42.827176" lon="0.253689">
        <ele>1688.8</ele>
        <time>2018-10-24T16:28:48Z</time>
      </trkpt>
      <trkpt lat="42.827114" lon="0.253787">
        <ele>1686.4</ele>
        <time>2018-10-24T16:28:55Z</time>
      </trkpt>
      <trkpt lat="42.827053" lon="0.253843">
        <ele>1684.2</ele>
        <time>2018-10-24T16:29:02Z</time>
      </trkpt>
      <trkpt lat="42.826980" lon="0.253906">
        <ele>1682.1</ele>
        <time>2018-10-24T16:29:09Z</time>
      </trkpt>
      <trkpt lat="42.826916" lon="0.253987">
        <ele>1679.6</ele>
        <time>2018-10-24T16:29:17Z</time>
      </trkpt>
      <trkpt lat="42.826855" lon="0.254088">
        <ele>1677.4</ele>
        <time>2018-10-24T16:29:25Z</time>
      </trkpt>
      <trkpt lat="42.826784" lon="0.254189">
        <ele>1675.4</ele>
        <time>2018-10-24T16:29:32Z</time>
      </trkpt>
      <trkpt lat="42.826715" lon="0.254279">
        <ele>1673.1</ele>
        <time>2018-10-24T16:29:40Z</time>
      </trkpt>
      <trkpt lat="42.826613" lon="0.254274">
        <ele>1669.9</ele>
        <time>2018-10-24T16:29:50Z</time>
      </trkpt>
      <trkpt lat="42.826532" lon="0.254334">
        <ele>1667.1</ele>
        <time>2018-10-24T16:29:59Z</time>
      </trkpt>
      <trkpt lat="42.826483" lon="0.254457">
        <ele>1663.7</ele>
        <time>2018-10-24T16:30:08Z</time>
      </trkpt>
      <trkpt lat="42.826450" lon="0.254589">
        <ele>1661.4</ele>
        <time>2018-10-24T16:30:15Z</time>
      </trkpt>
      <trkpt lat="42.826399" lon="0.254713">
        <ele>1658.7</ele>
        <time>2018-10-24T16:30:22Z</time>
      </trkpt>
      <trkpt lat="42.826356" lon="0.254830">
        <ele>1655.9</ele>
        <time>2018-10-24T16:30:29Z</time>
      </trkpt>
      <trkpt lat="42.826295" lon="0.254949">
        <ele>1653.0</ele>
        <time>2018-10-24T16:30:36Z</time>
      </trkpt>
      <trkpt lat="42.826251" lon="0.255061">
        <ele>1650.6</ele>
        <time>2018-10-24T16:30:42Z</time>
      </trkpt>
      <trkpt lat="42.826207" lon="0.255186">
        <ele>1648.6</ele>
        <time>2018-10-24T16:30:49Z</time>
      </trkpt>
      <trkpt lat="42.826168" lon="0.255320">
        <ele>1646.4</ele>
        <time>2018-10-24T16:30:57Z</time>
      </trkpt>
      <trkpt lat="42.826132" lon="0.255446">
        <ele>1644.4</ele>
        <time>2018-10-24T16:31:04Z</time>
      </trkpt>
      <trkpt lat="42.826094" lon="0.255592">
        <ele>1641.9</ele>
        <time>2018-10-24T16:31:12Z</time>
      </trkpt>
      <trkpt lat="42.826077" lon="0.255729">
        <ele>1640.0</ele>
        <time>2018-10-24T16:31:19Z</time>
      </trkpt>
      <trkpt lat="42.826076" lon="0.255853">
        <ele>1637.8</ele>
        <time>2018-10-24T16:31:26Z</time>
      </trkpt>
      <trkpt lat="42.826074" lon="0.255980">
        <ele>1635.9</ele>
        <time>2018-10-24T16:31:33Z</time>
      </trkpt>
      <trkpt lat="42.826086" lon="0.256111">
        <ele>1633.9</ele>
        <time>2018-10-24T16:31:41Z</time>
      </trkpt>
      <trkpt lat="42.826083" lon="0.256232">
        <ele>1632.5</ele>
        <time>2018-10-24T16:31:48Z</time>
      </trkpt>
      <trkpt lat="42.826089" lon="0.256362">
        <ele>1630.7</ele>
        <time>2018-10-24T16:31:56Z</time>
      </trkpt>
      <trkpt lat="42.826061" lon="0.256500">
        <ele>1629.0</ele>
        <time>2018-10-24T16:32:03Z</time>
      </trkpt>
      <trkpt lat="42.826057" lon="0.256633">
        <ele>1627.2</ele>
        <time>2018-10-24T16:32:10Z</time>
      </trkpt>
      <trkpt lat="42.826067" lon="0.256761">
        <ele>1625.7</ele>
        <time>2018-10-24T16:32:17Z</time>
      </trkpt>
      <trkpt lat="42.826084" lon="0.256888">
        <ele>1624.2</ele>
        <time>2018-10-24T16:32:24Z</time>
      </trkpt>
      <trkpt lat="42.826085" lon="0.257017">
        <ele>1622.6</ele>
        <time>2018-10-24T16:32:31Z</time>
      </trkpt>
      <trkpt lat="42.826092" lon="0.257167">
        <ele>1621.1</ele>
        <time>2018-10-24T16:32:38Z</time>
      </trkpt>
      <trkpt lat="42.826087" lon="0.257309">
        <ele>1619.2</ele>
        <time>2018-10-24T16:32:46Z</time>
      </trkpt>
      <trkpt lat="42.826066" lon="0.257446">
        <ele>1617.6</ele>
        <time>2018-10-24T16:32:53Z</time>
      </trkpt>
      <trkpt lat="42.826036" lon="0.257556">
        <ele>1616.7</ele>
        <time>2018-10-24T16:32:59Z</time>
      </trkpt>
      <trkpt lat="42.826018" lon="0.257689">
        <ele>1615.6</ele>
        <time>2018-10-24T16:33:05Z</time>
      </trkpt>
      <trkpt lat="42.826002" lon="0.257803">
        <ele>1615.0</ele>
        <time>2018-10-24T16:33:11Z</time>
      </trkpt>
      <trkpt lat="42.825988" lon="0.257940">
        <ele>1614.3</ele>
        <time>2018-10-24T16:33:18Z</time>
      </trkpt>
      <trkpt lat="42.825984" lon="0.258088">
        <ele>1614.1</ele>
        <time>2018-10-24T16:33:26Z</time>
      </trkpt>
      <trkpt lat="42.826003" lon="0.258233">
        <ele>1613.7</ele>
        <time>2018-10-24T16:33:35Z</time>
      </trkpt>
      <trkpt lat="42.826014" lon="0.258321">
        <ele>1614.0</ele>
        <time>2018-10-24T16:33:43Z</time>
      </trkpt>
    </trkseg>
  </trk>
</gpx>

